Index of /mirror/wikimedia.org/dumps/dewiki/20211201

[ICO]NameLast modifiedSize

[PARENTDIR]Parent Directory  -
[ARC]dewiki-20211201-abstract.xml.gz2021-12-02 22:57 337M
[ARC]dewiki-20211201-abstract1.xml.gz2021-12-02 22:27 84M
[ARC]dewiki-20211201-abstract2.xml.gz2021-12-02 21:56 44M
[ARC]dewiki-20211201-abstract3.xml.gz2021-12-02 22:09 44M
[ARC]dewiki-20211201-abstract4.xml.gz2021-12-02 22:50 50M
[ARC]dewiki-20211201-abstract5.xml.gz2021-12-02 22:46 54M
[ARC]dewiki-20211201-abstract6.xml.gz2021-12-02 22:57 61M
[ARC]dewiki-20211201-all-titles-in-ns0.gz2021-12-02 19:39 24M
[ARC]dewiki-20211201-all-titles.gz2021-12-02 19:39 42M
[ARC]dewiki-20211201-babel.sql.gz2021-12-01 18:20 14K
[ARC]dewiki-20211201-category.sql.gz2021-12-01 17:38 5.8M
[ARC]dewiki-20211201-categorylinks.sql.gz2021-12-01 17:30 339M
[ARC]dewiki-20211201-change_tag.sql.gz2021-12-01 17:43 129M
[ARC]dewiki-20211201-change_tag_def.sql.gz2021-12-01 17:44 1.6K
[ARC]dewiki-20211201-externallinks.sql.gz2021-12-01 17:36 1.0G
[ARC]dewiki-20211201-flaggedpage_config.sql.gz2021-12-01 17:51 826
[ARC]dewiki-20211201-flaggedpage_pending.sql.gz2021-12-01 17:51 89K
[ARC]dewiki-20211201-flaggedpages.sql.gz2021-12-01 17:44 36M
[ARC]dewiki-20211201-flaggedrevs.sql.gz2021-12-01 17:49 1.5G
[ARC]dewiki-20211201-flaggedrevs_promote.sql.gz2021-12-01 17:51 28M
[ARC]dewiki-20211201-flaggedrevs_statistics.sql.gz2021-12-01 17:52 7.6M
[ARC]dewiki-20211201-flaggedrevs_tracking.sql.gz2021-12-01 17:52 206K
[ARC]dewiki-20211201-flaggedtemplates.sql.gz2021-12-01 18:14 6.4G
[ARC]dewiki-20211201-geo_tags.sql.gz2021-12-01 17:42 42M
[ARC]dewiki-20211201-image.sql.gz2021-12-01 17:22 15M
[ARC]dewiki-20211201-imagelinks.sql.gz2021-12-01 17:30 115M
[ARC]dewiki-20211201-iwlinks.sql.gz2021-12-01 17:42 36M
[ARC]dewiki-20211201-langlinks.sql.gz2021-12-01 17:37 246M
[   ]dewiki-20211201-md5sums.json2021-12-04 11:39 40K
[TXT]dewiki-20211201-md5sums.txt2021-12-04 11:39 38K
[ARC]dewiki-20211201-page.sql.gz2021-12-01 17:39 271M
[ARC]dewiki-20211201-page_props.sql.gz2021-12-01 17:40 79M
[ARC]dewiki-20211201-page_restrictions.sql.gz2021-12-01 17:40 1.7M
[ARC]dewiki-20211201-pagelinks.sql.gz2021-12-01 17:28 1.0G
[ARC]dewiki-20211201-pages-articles-multistream-index.txt.bz22021-12-02 03:41 51M
[ARC]dewiki-20211201-pages-articles-multistream-index1.txt-p1p297012.bz22021-12-02 03:07 1.3M
[ARC]dewiki-20211201-pages-articles-multistream-index2.txt-p297013p1262093.bz22021-12-02 03:11 3.7M
[ARC]dewiki-20211201-pages-articles-multistream-index3.txt-p1262094p2762093.bz22021-12-02 03:11 5.0M
[ARC]dewiki-20211201-pages-articles-multistream-index3.txt-p2762094p3376257.bz22021-12-02 03:02 2.1M
[ARC]dewiki-20211201-pages-articles-multistream-index4.txt-p3376258p4876257.bz22021-12-02 03:11 5.3M
[ARC]dewiki-20211201-pages-articles-multistream-index4.txt-p4876258p6115464.bz22021-12-02 03:09 4.6M
[ARC]dewiki-20211201-pages-articles-multistream-index5.txt-p6115465p7615464.bz22021-12-02 03:26 6.7M
[ARC]dewiki-20211201-pages-articles-multistream-index5.txt-p7615465p9115464.bz22021-12-02 03:28 7.1M
[ARC]dewiki-20211201-pages-articles-multistream-index5.txt-p9115465p9261244.bz22021-12-02 03:12 364K
[ARC]dewiki-20211201-pages-articles-multistream-index6.txt-p9261245p10761244.bz22021-12-02 03:29 7.5M
[ARC]dewiki-20211201-pages-articles-multistream-index6.txt-p10761245p12018575.bz22021-12-02 03:26 6.8M
[ARC]dewiki-20211201-pages-articles-multistream.xml.bz22021-12-02 03:40 6.0G
[ARC]dewiki-20211201-pages-articles-multistream1.xml-p1p297012.bz22021-12-02 03:07 517M
[ARC]dewiki-20211201-pages-articles-multistream2.xml-p297013p1262093.bz22021-12-02 03:11 660M
[ARC]dewiki-20211201-pages-articles-multistream3.xml-p1262094p2762093.bz22021-12-02 03:11 613M
[ARC]dewiki-20211201-pages-articles-multistream3.xml-p2762094p3376257.bz22021-12-02 03:02 246M
[ARC]dewiki-20211201-pages-articles-multistream4.xml-p3376258p4876257.bz22021-12-02 03:11 605M
[ARC]dewiki-20211201-pages-articles-multistream4.xml-p4876258p6115464.bz22021-12-02 03:09 499M
[ARC]dewiki-20211201-pages-articles-multistream5.xml-p6115465p7615464.bz22021-12-02 03:26 672M
[ARC]dewiki-20211201-pages-articles-multistream5.xml-p7615465p9115464.bz22021-12-02 03:28 774M
[ARC]dewiki-20211201-pages-articles-multistream5.xml-p9115465p9261244.bz22021-12-02 03:12 36M
[ARC]dewiki-20211201-pages-articles-multistream6.xml-p9261245p10761244.bz22021-12-02 03:29 821M
[ARC]dewiki-20211201-pages-articles-multistream6.xml-p10761245p12018575.bz22021-12-02 03:26 685M
[ARC]dewiki-20211201-pages-articles.xml.bz22021-12-02 00:14 5.7G
[ARC]dewiki-20211201-pages-articles1.xml-p1p297012.bz22021-12-01 23:25 512M
[ARC]dewiki-20211201-pages-articles2.xml-p297013p1262093.bz22021-12-01 23:28 644M
[ARC]dewiki-20211201-pages-articles3.xml-p1262094p2762093.bz22021-12-01 23:27 588M
[ARC]dewiki-20211201-pages-articles3.xml-p2762094p3376257.bz22021-12-01 23:20 234M
[ARC]dewiki-20211201-pages-articles4.xml-p3376258p4876257.bz22021-12-01 23:27 577M
[ARC]dewiki-20211201-pages-articles4.xml-p4876258p6115464.bz22021-12-01 23:25 476M
[ARC]dewiki-20211201-pages-articles5.xml-p6115465p7615464.bz22021-12-01 23:40 638M
[ARC]dewiki-20211201-pages-articles5.xml-p7615465p9115464.bz22021-12-01 23:42 740M
[ARC]dewiki-20211201-pages-articles5.xml-p9115465p9261244.bz22021-12-01 23:28 34M
[ARC]dewiki-20211201-pages-articles6.xml-p9261245p10761244.bz22021-12-01 23:43 785M
[ARC]dewiki-20211201-pages-articles6.xml-p10761245p12018575.bz22021-12-01 23:41 651M
[ARC]dewiki-20211201-pages-logging.xml.gz2021-12-02 23:09 1.3G
[ARC]dewiki-20211201-pages-logging1.xml.gz2021-12-02 23:08 347M
[ARC]dewiki-20211201-pages-logging2.xml.gz2021-12-02 23:05 221M
[ARC]dewiki-20211201-pages-logging3.xml.gz2021-12-02 23:05 228M
[ARC]dewiki-20211201-pages-logging4.xml.gz2021-12-02 23:03 135M
[ARC]dewiki-20211201-pages-logging5.xml.gz2021-12-02 23:03 146M
[ARC]dewiki-20211201-pages-logging6.xml.gz2021-12-02 23:06 292M
[ARC]dewiki-20211201-pages-meta-current.xml.bz22021-12-02 10:45 8.6G
[ARC]dewiki-20211201-pages-meta-current1.xml-p1p297012.bz22021-12-02 09:17 614M
[ARC]dewiki-20211201-pages-meta-current2.xml-p297013p1262093.bz22021-12-02 09:22 907M
[ARC]dewiki-20211201-pages-meta-current3.xml-p1262094p2762093.bz22021-12-02 09:24 918M
[ARC]dewiki-20211201-pages-meta-current3.xml-p2762094p3376257.bz22021-12-02 09:13 378M
[ARC]dewiki-20211201-pages-meta-current4.xml-p3376258p4876257.bz22021-12-02 09:24 942M
[ARC]dewiki-20211201-pages-meta-current4.xml-p4876258p6115464.bz22021-12-02 09:21 778M
[ARC]dewiki-20211201-pages-meta-current5.xml-p6115465p7615464.bz22021-12-02 09:44 1.0G
[ARC]dewiki-20211201-pages-meta-current5.xml-p7615465p9115464.bz22021-12-02 09:48 1.1G
[ARC]dewiki-20211201-pages-meta-current5.xml-p9115465p9261244.bz22021-12-02 09:25 66M
[ARC]dewiki-20211201-pages-meta-current6.xml-p9261245p10761244.bz22021-12-02 09:49 1.1G
[ARC]dewiki-20211201-pages-meta-current6.xml-p10761245p12018588.bz22021-12-02 09:45 920M
[CMP]dewiki-20211201-pages-meta-history1.xml-p1p1598.7z2021-12-04 03:22 183M
[ARC]dewiki-20211201-pages-meta-history1.xml-p1p1598.bz22021-12-03 00:31 2.3G
[CMP]dewiki-20211201-pages-meta-history1.xml-p1599p3226.7z2021-12-04 03:21 178M
[ARC]dewiki-20211201-pages-meta-history1.xml-p1599p3226.bz22021-12-03 00:29 2.1G
[CMP]dewiki-20211201-pages-meta-history1.xml-p3227p5136.7z2021-12-04 03:24 183M
[ARC]dewiki-20211201-pages-meta-history1.xml-p3227p5136.bz22021-12-03 00:37 2.0G
[CMP]dewiki-20211201-pages-meta-history1.xml-p5137p6175.7z2021-12-04 03:22 162M
[ARC]dewiki-20211201-pages-meta-history1.xml-p5137p6175.bz22021-12-03 00:37 1.9G
[CMP]dewiki-20211201-pages-meta-history1.xml-p6176p9109.7z2021-12-04 03:23 190M
[ARC]dewiki-20211201-pages-meta-history1.xml-p6176p9109.bz22021-12-03 00:39 1.8G
[CMP]dewiki-20211201-pages-meta-history1.xml-p9110p11891.7z2021-12-04 03:24 192M
[ARC]dewiki-20211201-pages-meta-history1.xml-p9110p11891.bz22021-12-03 00:37 2.1G
[CMP]dewiki-20211201-pages-meta-history1.xml-p11892p15048.7z2021-12-04 03:44 198M
[ARC]dewiki-20211201-pages-meta-history1.xml-p11892p15048.bz22021-12-03 01:25 1.9G
[CMP]dewiki-20211201-pages-meta-history1.xml-p15049p17986.7z2021-12-04 03:45 195M
[ARC]dewiki-20211201-pages-meta-history1.xml-p15049p17986.bz22021-12-03 01:26 1.9G
[CMP]dewiki-20211201-pages-meta-history1.xml-p17987p22120.7z2021-12-04 03:40 208M
[ARC]dewiki-20211201-pages-meta-history1.xml-p17987p22120.bz22021-12-03 01:25 1.8G
[CMP]dewiki-20211201-pages-meta-history1.xml-p22121p28991.7z2021-12-04 03:40 231M
[ARC]dewiki-20211201-pages-meta-history1.xml-p22121p28991.bz22021-12-03 01:25 1.8G
[CMP]dewiki-20211201-pages-meta-history1.xml-p28992p33794.7z2021-12-04 03:45 222M
[ARC]dewiki-20211201-pages-meta-history1.xml-p28992p33794.bz22021-12-03 01:27 2.4G
[CMP]dewiki-20211201-pages-meta-history1.xml-p33795p41625.7z2021-12-04 03:40 242M
[ARC]dewiki-20211201-pages-meta-history1.xml-p33795p41625.bz22021-12-03 01:26 1.7G
[CMP]dewiki-20211201-pages-meta-history1.xml-p41626p49817.7z2021-12-04 04:02 232M
[ARC]dewiki-20211201-pages-meta-history1.xml-p41626p49817.bz22021-12-03 02:13 1.8G
[CMP]dewiki-20211201-pages-meta-history1.xml-p49818p57509.7z2021-12-04 04:02 235M
[ARC]dewiki-20211201-pages-meta-history1.xml-p49818p57509.bz22021-12-03 02:13 2.0G
[CMP]dewiki-20211201-pages-meta-history1.xml-p57510p69033.7z2021-12-04 04:02 246M
[ARC]dewiki-20211201-pages-meta-history1.xml-p57510p69033.bz22021-12-03 02:12 1.7G
[CMP]dewiki-20211201-pages-meta-history1.xml-p69034p77682.7z2021-12-04 04:01 241M
[ARC]dewiki-20211201-pages-meta-history1.xml-p69034p77682.bz22021-12-03 02:15 1.9G
[CMP]dewiki-20211201-pages-meta-history1.xml-p77683p90942.7z2021-12-04 04:00 247M
[ARC]dewiki-20211201-pages-meta-history1.xml-p77683p90942.bz22021-12-03 02:09 1.4G
[CMP]dewiki-20211201-pages-meta-history1.xml-p90943p103232.7z2021-12-04 04:01 260M
[ARC]dewiki-20211201-pages-meta-history1.xml-p90943p103232.bz22021-12-03 02:11 1.7G
[CMP]dewiki-20211201-pages-meta-history1.xml-p103233p118230.7z2021-12-04 04:16 262M
[ARC]dewiki-20211201-pages-meta-history1.xml-p103233p118230.bz22021-12-03 02:59 1.6G
[CMP]dewiki-20211201-pages-meta-history1.xml-p118231p132687.7z2021-12-04 04:21 256M
[ARC]dewiki-20211201-pages-meta-history1.xml-p118231p132687.bz22021-12-03 02:58 1.6G
[CMP]dewiki-20211201-pages-meta-history1.xml-p132688p147973.7z2021-12-04 04:19 252M
[ARC]dewiki-20211201-pages-meta-history1.xml-p132688p147973.bz22021-12-03 02:55 1.4G
[CMP]dewiki-20211201-pages-meta-history1.xml-p147974p164913.7z2021-12-04 04:19 248M
[ARC]dewiki-20211201-pages-meta-history1.xml-p147974p164913.bz22021-12-03 02:53 1.3G
[CMP]dewiki-20211201-pages-meta-history1.xml-p164914p182563.7z2021-12-04 04:20 265M
[ARC]dewiki-20211201-pages-meta-history1.xml-p164914p182563.bz22021-12-03 02:56 1.7G
[CMP]dewiki-20211201-pages-meta-history1.xml-p182564p202493.7z2021-12-04 04:19 269M
[ARC]dewiki-20211201-pages-meta-history1.xml-p182564p202493.bz22021-12-03 02:56 1.6G
[CMP]dewiki-20211201-pages-meta-history1.xml-p202494p223393.7z2021-12-04 04:38 252M
[ARC]dewiki-20211201-pages-meta-history1.xml-p202494p223393.bz22021-12-03 03:37 1.4G
[CMP]dewiki-20211201-pages-meta-history1.xml-p223394p247206.7z2021-12-04 04:34 235M
[ARC]dewiki-20211201-pages-meta-history1.xml-p223394p247206.bz22021-12-03 03:29 1.1G
[CMP]dewiki-20211201-pages-meta-history1.xml-p247207p270405.7z2021-12-04 04:35 248M
[ARC]dewiki-20211201-pages-meta-history1.xml-p247207p270405.bz22021-12-03 03:31 1.3G
[CMP]dewiki-20211201-pages-meta-history1.xml-p270406p294004.7z2021-12-04 04:37 267M
[ARC]dewiki-20211201-pages-meta-history1.xml-p270406p294004.bz22021-12-03 03:35 1.6G
[CMP]dewiki-20211201-pages-meta-history1.xml-p294005p297012.7z2021-12-04 04:23 33M
[ARC]dewiki-20211201-pages-meta-history1.xml-p294005p297012.bz22021-12-03 03:09 168M
[CMP]dewiki-20211201-pages-meta-history2.xml-p297013p323346.7z2021-12-04 04:37 264M
[ARC]dewiki-20211201-pages-meta-history2.xml-p297013p323346.bz22021-12-03 03:27 1.4G
[CMP]dewiki-20211201-pages-meta-history2.xml-p323347p350360.7z2021-12-04 04:48 239M
[ARC]dewiki-20211201-pages-meta-history2.xml-p323347p350360.bz22021-12-03 04:07 1.1G
[CMP]dewiki-20211201-pages-meta-history2.xml-p350361p379968.7z2021-12-04 04:52 254M
[ARC]dewiki-20211201-pages-meta-history2.xml-p350361p379968.bz22021-12-03 04:08 1.3G
[CMP]dewiki-20211201-pages-meta-history2.xml-p379969p411835.7z2021-12-04 04:50 245M
[ARC]dewiki-20211201-pages-meta-history2.xml-p379969p411835.bz22021-12-03 04:07 1.1G
[CMP]dewiki-20211201-pages-meta-history2.xml-p411836p444478.7z2021-12-04 04:52 255M
[ARC]dewiki-20211201-pages-meta-history2.xml-p411836p444478.bz22021-12-03 04:08 1.2G
[CMP]dewiki-20211201-pages-meta-history2.xml-p444479p473698.7z2021-12-04 04:54 271M
[ARC]dewiki-20211201-pages-meta-history2.xml-p444479p473698.bz22021-12-03 04:16 1.7G
[CMP]dewiki-20211201-pages-meta-history2.xml-p473699p502797.7z2021-12-04 04:53 239M
[ARC]dewiki-20211201-pages-meta-history2.xml-p473699p502797.bz22021-12-03 04:11 1.2G
[CMP]dewiki-20211201-pages-meta-history2.xml-p502798p542149.7z2021-12-04 05:09 239M
[ARC]dewiki-20211201-pages-meta-history2.xml-p502798p542149.bz22021-12-03 04:44 1.0G
[CMP]dewiki-20211201-pages-meta-history2.xml-p542150p582400.7z2021-12-04 05:09 244M
[ARC]dewiki-20211201-pages-meta-history2.xml-p542150p582400.bz22021-12-03 04:43 1.0G
[CMP]dewiki-20211201-pages-meta-history2.xml-p582401p620123.7z2021-12-04 05:20 294M
[ARC]dewiki-20211201-pages-meta-history2.xml-p582401p620123.bz22021-12-03 04:58 2.0G
[CMP]dewiki-20211201-pages-meta-history2.xml-p620124p663792.7z2021-12-04 05:12 255M
[ARC]dewiki-20211201-pages-meta-history2.xml-p620124p663792.bz22021-12-03 04:49 1.2G
[CMP]dewiki-20211201-pages-meta-history2.xml-p663793p697767.7z2021-12-04 05:20 287M
[ARC]dewiki-20211201-pages-meta-history2.xml-p663793p697767.bz22021-12-03 05:01 2.3G
[CMP]dewiki-20211201-pages-meta-history2.xml-p697768p733227.7z2021-12-04 05:20 262M
[ARC]dewiki-20211201-pages-meta-history2.xml-p697768p733227.bz22021-12-03 04:59 1.7G
[CMP]dewiki-20211201-pages-meta-history2.xml-p733228p774781.7z2021-12-04 05:37 258M
[ARC]dewiki-20211201-pages-meta-history2.xml-p733228p774781.bz22021-12-03 05:38 1.4G
[CMP]dewiki-20211201-pages-meta-history2.xml-p774782p817956.7z2021-12-04 05:38 276M
[ARC]dewiki-20211201-pages-meta-history2.xml-p774782p817956.bz22021-12-03 05:38 1.6G
[CMP]dewiki-20211201-pages-meta-history2.xml-p817957p859002.7z2021-12-04 05:39 297M
[ARC]dewiki-20211201-pages-meta-history2.xml-p817957p859002.bz22021-12-03 05:42 2.0G
[CMP]dewiki-20211201-pages-meta-history2.xml-p859003p904851.7z2021-12-04 05:33 311M
[ARC]dewiki-20211201-pages-meta-history2.xml-p859003p904851.bz22021-12-03 05:43 2.3G
[CMP]dewiki-20211201-pages-meta-history2.xml-p904852p957586.7z2021-12-04 05:35 266M
[ARC]dewiki-20211201-pages-meta-history2.xml-p904852p957586.bz22021-12-03 05:33 1.2G
[CMP]dewiki-20211201-pages-meta-history2.xml-p957587p1004545.7z2021-12-04 05:37 257M
[ARC]dewiki-20211201-pages-meta-history2.xml-p957587p1004545.bz22021-12-03 05:33 1.3G
[CMP]dewiki-20211201-pages-meta-history2.xml-p1004546p1054543.7z2021-12-04 06:00 303M
[ARC]dewiki-20211201-pages-meta-history2.xml-p1004546p1054543.bz22021-12-03 06:25 2.1G
[CMP]dewiki-20211201-pages-meta-history2.xml-p1054544p1116046.7z2021-12-04 05:56 279M
[ARC]dewiki-20211201-pages-meta-history2.xml-p1054544p1116046.bz22021-12-03 06:19 1.6G
[CMP]dewiki-20211201-pages-meta-history2.xml-p1116047p1171919.7z2021-12-04 05:53 294M
[ARC]dewiki-20211201-pages-meta-history2.xml-p1116047p1171919.bz22021-12-03 06:24 1.9G
[CMP]dewiki-20211201-pages-meta-history2.xml-p1171920p1230276.7z2021-12-04 06:01 313M
[ARC]dewiki-20211201-pages-meta-history2.xml-p1171920p1230276.bz22021-12-03 06:29 2.4G
[CMP]dewiki-20211201-pages-meta-history2.xml-p1230277p1262093.7z2021-12-04 05:50 147M
[ARC]dewiki-20211201-pages-meta-history2.xml-p1230277p1262093.bz22021-12-03 06:06 767M
[CMP]dewiki-20211201-pages-meta-history3.xml-p1262094p1321768.7z2021-12-04 05:57 278M
[ARC]dewiki-20211201-pages-meta-history3.xml-p1262094p1321768.bz22021-12-03 06:12 1.6G
[CMP]dewiki-20211201-pages-meta-history3.xml-p1321769p1383471.7z2021-12-04 06:15 339M
[ARC]dewiki-20211201-pages-meta-history3.xml-p1321769p1383471.bz22021-12-03 07:05 1.6G
[CMP]dewiki-20211201-pages-meta-history3.xml-p1383472p1445886.7z2021-12-04 06:17 338M
[ARC]dewiki-20211201-pages-meta-history3.xml-p1383472p1445886.bz22021-12-03 07:13 2.5G
[CMP]dewiki-20211201-pages-meta-history3.xml-p1445887p1515865.7z2021-12-04 06:16 340M
[ARC]dewiki-20211201-pages-meta-history3.xml-p1445887p1515865.bz22021-12-03 07:11 1.9G
[CMP]dewiki-20211201-pages-meta-history3.xml-p1515866p1587024.7z2021-12-04 06:15 286M
[ARC]dewiki-20211201-pages-meta-history3.xml-p1515866p1587024.bz22021-12-03 07:05 1.6G
[CMP]dewiki-20211201-pages-meta-history3.xml-p1587025p1656122.7z2021-12-04 06:18 325M
[ARC]dewiki-20211201-pages-meta-history3.xml-p1587025p1656122.bz22021-12-03 07:17 2.4G
[CMP]dewiki-20211201-pages-meta-history3.xml-p1656123p1724667.7z2021-12-04 06:14 291M
[ARC]dewiki-20211201-pages-meta-history3.xml-p1656123p1724667.bz22021-12-03 07:04 1.5G
[CMP]dewiki-20211201-pages-meta-history3.xml-p1724668p1797111.7z2021-12-04 06:31 317M
[ARC]dewiki-20211201-pages-meta-history3.xml-p1724668p1797111.bz22021-12-03 07:58 1.9G
[CMP]dewiki-20211201-pages-meta-history3.xml-p1797112p1874205.7z2021-12-04 06:31 351M
[ARC]dewiki-20211201-pages-meta-history3.xml-p1797112p1874205.bz22021-12-03 08:00 2.0G
[CMP]dewiki-20211201-pages-meta-history3.xml-p1874206p1958743.7z2021-12-04 06:31 323M
[ARC]dewiki-20211201-pages-meta-history3.xml-p1874206p1958743.bz22021-12-03 07:57 2.2G
[CMP]dewiki-20211201-pages-meta-history3.xml-p1958744p2069347.7z2021-12-04 06:29 289M
[ARC]dewiki-20211201-pages-meta-history3.xml-p1958744p2069347.bz22021-12-03 07:55 1.7G
[CMP]dewiki-20211201-pages-meta-history3.xml-p2069348p2155603.7z2021-12-04 06:30 315M
[ARC]dewiki-20211201-pages-meta-history3.xml-p2069348p2155603.bz22021-12-03 07:57 2.1G
[CMP]dewiki-20211201-pages-meta-history3.xml-p2155604p2256513.7z2021-12-04 06:31 324M
[ARC]dewiki-20211201-pages-meta-history3.xml-p2155604p2256513.bz22021-12-03 08:01 2.0G
[CMP]dewiki-20211201-pages-meta-history3.xml-p2256514p2359696.7z2021-12-04 06:42 313M
[ARC]dewiki-20211201-pages-meta-history3.xml-p2256514p2359696.bz22021-12-03 08:41 1.9G
[CMP]dewiki-20211201-pages-meta-history3.xml-p2359697p2478689.7z2021-12-04 06:43 309M
[ARC]dewiki-20211201-pages-meta-history3.xml-p2359697p2478689.bz22021-12-03 08:39 1.8G
[CMP]dewiki-20211201-pages-meta-history3.xml-p2478690p2593579.7z2021-12-04 06:47 363M
[ARC]dewiki-20211201-pages-meta-history3.xml-p2478690p2593579.bz22021-12-03 08:51 2.9G
[CMP]dewiki-20211201-pages-meta-history3.xml-p2593580p2691990.7z2021-12-04 06:46 346M
[ARC]dewiki-20211201-pages-meta-history3.xml-p2593580p2691990.bz22021-12-03 08:52 2.8G
[CMP]dewiki-20211201-pages-meta-history3.xml-p2691991p2782090.7z2021-12-04 06:45 371M
[ARC]dewiki-20211201-pages-meta-history3.xml-p2691991p2782090.bz22021-12-03 08:51 3.1G
[CMP]dewiki-20211201-pages-meta-history3.xml-p2782091p2873810.7z2021-12-04 06:43 312M
[ARC]dewiki-20211201-pages-meta-history3.xml-p2782091p2873810.bz22021-12-03 08:43 1.9G
[CMP]dewiki-20211201-pages-meta-history3.xml-p2873811p2980259.7z2021-12-04 06:59 343M
[ARC]dewiki-20211201-pages-meta-history3.xml-p2873811p2980259.bz22021-12-03 09:34 2.2G
[CMP]dewiki-20211201-pages-meta-history3.xml-p2980260p3081763.7z2021-12-04 07:03 362M
[ARC]dewiki-20211201-pages-meta-history3.xml-p2980260p3081763.bz22021-12-03 09:42 3.0G
[CMP]dewiki-20211201-pages-meta-history3.xml-p3081764p3173455.7z2021-12-04 07:01 327M
[ARC]dewiki-20211201-pages-meta-history3.xml-p3081764p3173455.bz22021-12-03 09:39 2.5G
[CMP]dewiki-20211201-pages-meta-history3.xml-p3173456p3295635.7z2021-12-04 06:59 324M
[ARC]dewiki-20211201-pages-meta-history3.xml-p3173456p3295635.bz22021-12-03 09:35 1.9G
[CMP]dewiki-20211201-pages-meta-history3.xml-p3295636p3376257.7z2021-12-04 06:54 249M
[ARC]dewiki-20211201-pages-meta-history3.xml-p3295636p3376257.bz22021-12-03 09:24 1.4G
[CMP]dewiki-20211201-pages-meta-history4.xml-p3376258p3477755.7z2021-12-04 06:59 322M
[ARC]dewiki-20211201-pages-meta-history4.xml-p3376258p3477755.bz22021-12-03 09:25 1.9G
[CMP]dewiki-20211201-pages-meta-history4.xml-p3477756p3591375.7z2021-12-04 07:14 360M
[ARC]dewiki-20211201-pages-meta-history4.xml-p3477756p3591375.bz22021-12-03 10:22 2.0G
[CMP]dewiki-20211201-pages-meta-history4.xml-p3591376p3697549.7z2021-12-04 07:13 352M
[ARC]dewiki-20211201-pages-meta-history4.xml-p3591376p3697549.bz22021-12-03 10:16 1.6G
[CMP]dewiki-20211201-pages-meta-history4.xml-p3697550p3801048.7z2021-12-04 07:15 343M
[ARC]dewiki-20211201-pages-meta-history4.xml-p3697550p3801048.bz22021-12-03 10:24 2.3G
[CMP]dewiki-20211201-pages-meta-history4.xml-p3801049p3906041.7z2021-12-04 07:16 346M
[ARC]dewiki-20211201-pages-meta-history4.xml-p3801049p3906041.bz22021-12-03 10:26 2.2G
[CMP]dewiki-20211201-pages-meta-history4.xml-p3906042p4030877.7z2021-12-04 07:15 317M
[ARC]dewiki-20211201-pages-meta-history4.xml-p3906042p4030877.bz22021-12-03 10:20 1.8G
[CMP]dewiki-20211201-pages-meta-history4.xml-p4030878p4133916.7z2021-12-04 07:17 344M
[ARC]dewiki-20211201-pages-meta-history4.xml-p4030878p4133916.bz22021-12-03 10:26 2.2G
[CMP]dewiki-20211201-pages-meta-history4.xml-p4133917p4249445.7z2021-12-04 07:32 421M
[ARC]dewiki-20211201-pages-meta-history4.xml-p4133917p4249445.bz22021-12-03 11:14 2.7G
[CMP]dewiki-20211201-pages-meta-history4.xml-p4249446p4329642.7z2021-12-04 07:32 304M
[ARC]dewiki-20211201-pages-meta-history4.xml-p4249446p4329642.bz22021-12-03 11:18 2.6G
[CMP]dewiki-20211201-pages-meta-history4.xml-p4329643p4366801.7z2021-12-04 07:33 305M
[ARC]dewiki-20211201-pages-meta-history4.xml-p4329643p4366801.bz22021-12-03 11:17 3.7G
[CMP]dewiki-20211201-pages-meta-history4.xml-p4366802p4468278.7z2021-12-04 07:31 345M
[ARC]dewiki-20211201-pages-meta-history4.xml-p4366802p4468278.bz22021-12-03 11:10 2.0G
[CMP]dewiki-20211201-pages-meta-history4.xml-p4468279p4551155.7z2021-12-04 07:30 353M
[ARC]dewiki-20211201-pages-meta-history4.xml-p4468279p4551155.bz22021-12-03 11:15 2.7G
[CMP]dewiki-20211201-pages-meta-history4.xml-p4551156p4662910.7z2021-12-04 07:32 399M
[ARC]dewiki-20211201-pages-meta-history4.xml-p4551156p4662910.bz22021-12-03 11:16 2.9G
[CMP]dewiki-20211201-pages-meta-history4.xml-p4662911p4792154.7z2021-12-04 07:47 362M
[ARC]dewiki-20211201-pages-meta-history4.xml-p4662911p4792154.bz22021-12-03 12:06 2.8G
[CMP]dewiki-20211201-pages-meta-history4.xml-p4792155p4898825.7z2021-12-04 07:48 372M
[ARC]dewiki-20211201-pages-meta-history4.xml-p4792155p4898825.bz22021-12-03 12:09 3.4G
[CMP]dewiki-20211201-pages-meta-history4.xml-p4898826p5003717.7z2021-12-04 07:48 360M
[ARC]dewiki-20211201-pages-meta-history4.xml-p4898826p5003717.bz22021-12-03 12:06 2.8G
[CMP]dewiki-20211201-pages-meta-history4.xml-p5003718p5100284.7z2021-12-04 07:48 338M
[ARC]dewiki-20211201-pages-meta-history4.xml-p5003718p5100284.bz22021-12-03 12:08 2.9G
[CMP]dewiki-20211201-pages-meta-history4.xml-p5100285p5235816.7z2021-12-04 07:47 355M
[ARC]dewiki-20211201-pages-meta-history4.xml-p5100285p5235816.bz22021-12-03 12:07 2.7G
[CMP]dewiki-20211201-pages-meta-history4.xml-p5235817p5342247.7z2021-12-04 07:48 344M
[ARC]dewiki-20211201-pages-meta-history4.xml-p5235817p5342247.bz22021-12-03 12:06 2.6G
[CMP]dewiki-20211201-pages-meta-history4.xml-p5342248p5460858.7z2021-12-04 08:03 366M
[ARC]dewiki-20211201-pages-meta-history4.xml-p5342248p5460858.bz22021-12-03 12:56 2.7G
[CMP]dewiki-20211201-pages-meta-history4.xml-p5460859p5568700.7z2021-12-04 08:02 387M
[ARC]dewiki-20211201-pages-meta-history4.xml-p5460859p5568700.bz22021-12-03 12:57 2.9G
[CMP]dewiki-20211201-pages-meta-history4.xml-p5568701p5691976.7z2021-12-04 08:01 346M
[ARC]dewiki-20211201-pages-meta-history4.xml-p5568701p5691976.bz22021-12-03 12:51 2.2G
[CMP]dewiki-20211201-pages-meta-history4.xml-p5691977p5826120.7z2021-12-04 08:02 365M
[ARC]dewiki-20211201-pages-meta-history4.xml-p5691977p5826120.bz22021-12-03 12:55 2.5G
[CMP]dewiki-20211201-pages-meta-history4.xml-p5826121p5924203.7z2021-12-04 08:02 336M
[ARC]dewiki-20211201-pages-meta-history4.xml-p5826121p5924203.bz22021-12-03 12:57 2.6G
[CMP]dewiki-20211201-pages-meta-history4.xml-p5924204p6042723.7z2021-12-04 08:02 360M
[ARC]dewiki-20211201-pages-meta-history4.xml-p5924204p6042723.bz22021-12-03 12:56 2.6G
[CMP]dewiki-20211201-pages-meta-history4.xml-p6042724p6115464.7z2021-12-04 08:15 275M
[ARC]dewiki-20211201-pages-meta-history4.xml-p6042724p6115464.bz22021-12-03 13:38 2.1G
[CMP]dewiki-20211201-pages-meta-history5.xml-p6115465p6240991.7z2021-12-04 08:18 369M
[ARC]dewiki-20211201-pages-meta-history5.xml-p6115465p6240991.bz22021-12-03 13:39 2.7G
[CMP]dewiki-20211201-pages-meta-history5.xml-p6240992p6332298.7z2021-12-04 08:17 336M
[ARC]dewiki-20211201-pages-meta-history5.xml-p6240992p6332298.bz22021-12-03 13:47 2.7G
[CMP]dewiki-20211201-pages-meta-history5.xml-p6332299p6424537.7z2021-12-04 08:18 345M
[ARC]dewiki-20211201-pages-meta-history5.xml-p6332299p6424537.bz22021-12-03 13:48 2.9G
[CMP]dewiki-20211201-pages-meta-history5.xml-p6424538p6516772.7z2021-12-04 08:18 334M
[ARC]dewiki-20211201-pages-meta-history5.xml-p6424538p6516772.bz22021-12-03 13:47 2.6G
[CMP]dewiki-20211201-pages-meta-history5.xml-p6516773p6529937.7z2021-12-04 08:20 274M
[ARC]dewiki-20211201-pages-meta-history5.xml-p6516773p6529937.bz22021-12-03 13:59 4.9G
[CMP]dewiki-20211201-pages-meta-history5.xml-p6529938p6612046.7z2021-12-04 08:45 399M
[ARC]dewiki-20211201-pages-meta-history5.xml-p6529938p6612046.bz22021-12-03 15:01 4.4G
[CMP]dewiki-20211201-pages-meta-history5.xml-p6612047p6678845.7z2021-12-04 08:49 522M
[ARC]dewiki-20211201-pages-meta-history5.xml-p6612047p6678845.bz22021-12-03 15:16 6.8G
[CMP]dewiki-20211201-pages-meta-history5.xml-p6678846p6745150.7z2021-12-04 08:38 297M
[ARC]dewiki-20211201-pages-meta-history5.xml-p6678846p6745150.bz22021-12-03 14:55 3.1G
[CMP]dewiki-20211201-pages-meta-history5.xml-p6745151p6858587.7z2021-12-04 08:37 365M
[ARC]dewiki-20211201-pages-meta-history5.xml-p6745151p6858587.bz22021-12-03 14:47 2.6G
[CMP]dewiki-20211201-pages-meta-history5.xml-p6858588p6974525.7z2021-12-04 08:38 369M
[ARC]dewiki-20211201-pages-meta-history5.xml-p6858588p6974525.bz22021-12-03 14:47 2.2G
[CMP]dewiki-20211201-pages-meta-history5.xml-p6974526p7041465.7z2021-12-04 08:37 291M
[ARC]dewiki-20211201-pages-meta-history5.xml-p6974526p7041465.bz22021-12-03 14:47 2.3G
[CMP]dewiki-20211201-pages-meta-history5.xml-p7041466p7076412.7z2021-12-04 09:20 555M
[ARC]dewiki-20211201-pages-meta-history5.xml-p7041466p7076412.bz22021-12-03 17:02 9.8G
[CMP]dewiki-20211201-pages-meta-history5.xml-p7076413p7165975.7z2021-12-04 08:56 216M
[ARC]dewiki-20211201-pages-meta-history5.xml-p7076413p7165975.bz22021-12-03 15:38 1.3G
[CMP]dewiki-20211201-pages-meta-history5.xml-p7165976p7376675.7z2021-12-04 09:09 481M
[ARC]dewiki-20211201-pages-meta-history5.xml-p7165976p7376675.bz22021-12-03 16:08 2.2G
[CMP]dewiki-20211201-pages-meta-history5.xml-p7376676p7513293.7z2021-12-04 09:02 393M
[ARC]dewiki-20211201-pages-meta-history5.xml-p7376676p7513293.bz22021-12-03 15:55 2.0G
[CMP]dewiki-20211201-pages-meta-history5.xml-p7513294p7637959.7z2021-12-04 09:04 381M
[ARC]dewiki-20211201-pages-meta-history5.xml-p7513294p7637959.bz22021-12-03 16:02 2.3G
[CMP]dewiki-20211201-pages-meta-history5.xml-p7637960p7754916.7z2021-12-04 09:04 376M
[ARC]dewiki-20211201-pages-meta-history5.xml-p7637960p7754916.bz22021-12-03 16:06 2.8G
[CMP]dewiki-20211201-pages-meta-history5.xml-p7754917p7883266.7z2021-12-04 09:36 372M
[ARC]dewiki-20211201-pages-meta-history5.xml-p7754917p7883266.bz22021-12-03 17:41 2.1G
[CMP]dewiki-20211201-pages-meta-history5.xml-p7883267p8020452.7z2021-12-04 09:36 413M
[ARC]dewiki-20211201-pages-meta-history5.xml-p7883267p8020452.bz22021-12-03 17:51 2.7G
[CMP]dewiki-20211201-pages-meta-history5.xml-p8020453p8131042.7z2021-12-04 09:35 363M
[ARC]dewiki-20211201-pages-meta-history5.xml-p8020453p8131042.bz22021-12-03 17:51 2.5G
[CMP]dewiki-20211201-pages-meta-history5.xml-p8131043p8240286.7z2021-12-04 09:36 389M
[ARC]dewiki-20211201-pages-meta-history5.xml-p8131043p8240286.bz22021-12-03 17:51 2.7G
[CMP]dewiki-20211201-pages-meta-history5.xml-p8240287p8378375.7z2021-12-04 09:35 387M
[ARC]dewiki-20211201-pages-meta-history5.xml-p8240287p8378375.bz22021-12-03 17:46 2.1G
[CMP]dewiki-20211201-pages-meta-history5.xml-p8378376p8505543.7z2021-12-04 09:36 404M
[ARC]dewiki-20211201-pages-meta-history5.xml-p8378376p8505543.bz22021-12-03 17:50 2.4G
[CMP]dewiki-20211201-pages-meta-history5.xml-p8505544p8637874.7z2021-12-04 09:49 376M
[ARC]dewiki-20211201-pages-meta-history5.xml-p8505544p8637874.bz22021-12-03 18:34 1.8G
[CMP]dewiki-20211201-pages-meta-history5.xml-p8637875p8863015.7z2021-12-04 09:47 313M
[ARC]dewiki-20211201-pages-meta-history5.xml-p8637875p8863015.bz22021-12-03 18:28 1.5G
[CMP]dewiki-20211201-pages-meta-history5.xml-p8863016p8972208.7z2021-12-04 09:51 397M
[ARC]dewiki-20211201-pages-meta-history5.xml-p8863016p8972208.bz22021-12-03 18:37 2.7G
[CMP]dewiki-20211201-pages-meta-history5.xml-p8972209p9065062.7z2021-12-04 09:51 341M
[ARC]dewiki-20211201-pages-meta-history5.xml-p8972209p9065062.bz22021-12-03 18:40 2.3G
[CMP]dewiki-20211201-pages-meta-history5.xml-p9065063p9082351.7z2021-12-04 10:10 553M
[ARC]dewiki-20211201-pages-meta-history5.xml-p9065063p9082351.bz22021-12-03 19:46 10G
[CMP]dewiki-20211201-pages-meta-history5.xml-p9082352p9197169.7z2021-12-04 09:53 512M
[ARC]dewiki-20211201-pages-meta-history5.xml-p9082352p9197169.bz22021-12-03 18:57 4.4G
[CMP]dewiki-20211201-pages-meta-history5.xml-p9197170p9261244.7z2021-12-04 10:15 105M
[ARC]dewiki-20211201-pages-meta-history5.xml-p9197170p9261244.bz22021-12-03 19:59 600M
[CMP]dewiki-20211201-pages-meta-history6.xml-p9261245p9460135.7z2021-12-04 10:25 426M
[ARC]dewiki-20211201-pages-meta-history6.xml-p9261245p9460135.bz22021-12-03 20:25 2.2G
[CMP]dewiki-20211201-pages-meta-history6.xml-p9460136p9600978.7z2021-12-04 10:26 431M
[ARC]dewiki-20211201-pages-meta-history6.xml-p9460136p9600978.bz22021-12-03 20:36 2.8G
[CMP]dewiki-20211201-pages-meta-history6.xml-p9600979p9657685.7z2021-12-04 10:24 355M
[ARC]dewiki-20211201-pages-meta-history6.xml-p9600979p9657685.bz22021-12-03 20:31 2.5G
[CMP]dewiki-20211201-pages-meta-history6.xml-p9657686p9740494.7z2021-12-04 10:24 339M
[ARC]dewiki-20211201-pages-meta-history6.xml-p9657686p9740494.bz22021-12-03 20:32 2.8G
[CMP]dewiki-20211201-pages-meta-history6.xml-p9740495p9759826.7z2021-12-04 10:24 419M
[ARC]dewiki-20211201-pages-meta-history6.xml-p9740495p9759826.bz22021-12-03 20:34 3.2G
[CMP]dewiki-20211201-pages-meta-history6.xml-p9759827p9925680.7z2021-12-04 10:38 429M
[ARC]dewiki-20211201-pages-meta-history6.xml-p9759827p9925680.bz22021-12-03 21:15 2.2G
[CMP]dewiki-20211201-pages-meta-history6.xml-p9925681p9962732.7z2021-12-04 10:41 599M
[ARC]dewiki-20211201-pages-meta-history6.xml-p9925681p9962732.bz22021-12-03 21:19 3.2G
[CMP]dewiki-20211201-pages-meta-history6.xml-p9962733p10059299.7z2021-12-04 10:41 387M
[ARC]dewiki-20211201-pages-meta-history6.xml-p9962733p10059299.bz22021-12-03 21:24 2.1G
[CMP]dewiki-20211201-pages-meta-history6.xml-p10059300p10211965.7z2021-12-04 10:41 424M
[ARC]dewiki-20211201-pages-meta-history6.xml-p10059300p10211965.bz22021-12-03 21:24 2.4G
[CMP]dewiki-20211201-pages-meta-history6.xml-p10211966p10261657.7z2021-12-04 10:42 523M
[ARC]dewiki-20211201-pages-meta-history6.xml-p10211966p10261657.bz22021-12-03 21:28 2.9G
[CMP]dewiki-20211201-pages-meta-history6.xml-p10261658p10425034.7z2021-12-04 10:41 424M
[ARC]dewiki-20211201-pages-meta-history6.xml-p10261658p10425034.bz22021-12-03 21:26 2.4G
[CMP]dewiki-20211201-pages-meta-history6.xml-p10425035p10628186.7z2021-12-04 10:55 421M
[ARC]dewiki-20211201-pages-meta-history6.xml-p10425035p10628186.bz22021-12-03 22:09 2.0G
[CMP]dewiki-20211201-pages-meta-history6.xml-p10628187p10770779.7z2021-12-04 10:57 487M
[ARC]dewiki-20211201-pages-meta-history6.xml-p10628187p10770779.bz22021-12-03 22:15 2.5G
[CMP]dewiki-20211201-pages-meta-history6.xml-p10770780p10971313.7z2021-12-04 10:55 404M
[ARC]dewiki-20211201-pages-meta-history6.xml-p10770780p10971313.bz22021-12-03 22:09 1.7G
[CMP]dewiki-20211201-pages-meta-history6.xml-p10971314p11155167.7z2021-12-04 10:57 425M
[ARC]dewiki-20211201-pages-meta-history6.xml-p10971314p11155167.bz22021-12-03 22:14 2.6G
[CMP]dewiki-20211201-pages-meta-history6.xml-p11155168p11233854.7z2021-12-04 10:58 311M
[ARC]dewiki-20211201-pages-meta-history6.xml-p11155168p11233854.bz22021-12-03 22:23 3.4G
[CMP]dewiki-20211201-pages-meta-history6.xml-p11233855p11360825.7z2021-12-04 10:58 469M
[ARC]dewiki-20211201-pages-meta-history6.xml-p11233855p11360825.bz22021-12-03 22:20 3.6G
[CMP]dewiki-20211201-pages-meta-history6.xml-p11360826p11541020.7z2021-12-04 11:12 445M
[ARC]dewiki-20211201-pages-meta-history6.xml-p11360826p11541020.bz22021-12-03 23:12 2.8G
[CMP]dewiki-20211201-pages-meta-history6.xml-p11541021p11746643.7z2021-12-04 11:11 443M
[ARC]dewiki-20211201-pages-meta-history6.xml-p11541021p11746643.bz22021-12-03 23:06 2.2G
[CMP]dewiki-20211201-pages-meta-history6.xml-p11746644p11911283.7z2021-12-04 11:14 515M
[ARC]dewiki-20211201-pages-meta-history6.xml-p11746644p11911283.bz22021-12-03 23:19 4.5G
[CMP]dewiki-20211201-pages-meta-history6.xml-p11911284p12018588.7z2021-12-04 11:02 158M
[ARC]dewiki-20211201-pages-meta-history6.xml-p11911284p12018588.bz22021-12-03 23:07 794M
[ARC]dewiki-20211201-protected_titles.sql.gz2021-12-01 17:41 3.4M
[ARC]dewiki-20211201-redirect.sql.gz2021-12-01 17:41 22M
[TXT]dewiki-20211201-runsettings.txt2021-12-01 12:59 84
[   ]dewiki-20211201-sha1sums.json2021-12-04 11:39 43K
[TXT]dewiki-20211201-sha1sums.txt2021-12-04 11:39 41K
[ARC]dewiki-20211201-site_stats.sql.gz2021-12-01 17:22 827
[ARC]dewiki-20211201-siteinfo-namespaces.json.gz2021-12-02 19:39 6.0K
[ARC]dewiki-20211201-sites.sql.gz2021-12-01 18:19 21K
[ARC]dewiki-20211201-stub-articles.xml.gz2021-12-01 17:08 511M
[ARC]dewiki-20211201-stub-articles1.xml.gz2021-12-01 15:56 16M
[ARC]dewiki-20211201-stub-articles2.xml.gz2021-12-01 16:06 42M
[ARC]dewiki-20211201-stub-articles3.xml.gz2021-12-01 16:28 74M
[ARC]dewiki-20211201-stub-articles4.xml.gz2021-12-01 16:34 101M
[ARC]dewiki-20211201-stub-articles5.xml.gz2021-12-01 16:49 139M
[ARC]dewiki-20211201-stub-articles6.xml.gz2021-12-01 15:36 138M
[ARC]dewiki-20211201-stub-meta-current.xml.gz2021-12-01 17:08 733M
[ARC]dewiki-20211201-stub-meta-current1.xml.gz2021-12-01 15:56 20M
[ARC]dewiki-20211201-stub-meta-current2.xml.gz2021-12-01 16:06 56M
[ARC]dewiki-20211201-stub-meta-current3.xml.gz2021-12-01 16:28 107M
[ARC]dewiki-20211201-stub-meta-current4.xml.gz2021-12-01 16:34 149M
[ARC]dewiki-20211201-stub-meta-current5.xml.gz2021-12-01 16:49 205M
[ARC]dewiki-20211201-stub-meta-current6.xml.gz2021-12-01 15:36 196M
[ARC]dewiki-20211201-stub-meta-history.xml.gz2021-12-01 17:08 14G
[ARC]dewiki-20211201-stub-meta-history1.xml.gz2021-12-01 15:56 2.5G
[ARC]dewiki-20211201-stub-meta-history2.xml.gz2021-12-01 16:06 2.5G
[ARC]dewiki-20211201-stub-meta-history3.xml.gz2021-12-01 16:28 2.5G
[ARC]dewiki-20211201-stub-meta-history4.xml.gz2021-12-01 16:34 2.5G
[ARC]dewiki-20211201-stub-meta-history5.xml.gz2021-12-01 16:49 2.4G
[ARC]dewiki-20211201-stub-meta-history6.xml.gz2021-12-01 15:36 1.6G
[ARC]dewiki-20211201-templatelinks.sql.gz2021-12-01 17:32 224M
[ARC]dewiki-20211201-user_former_groups.sql.gz2021-12-01 17:38 6.1K
[ARC]dewiki-20211201-user_groups.sql.gz2021-12-01 17:38 200K
[ARC]dewiki-20211201-wbc_entity_usage.sql.gz2021-12-01 18:20 153M
[   ]dumpruninfo.json2021-12-04 11:40 3.5K
[TXT]dumpruninfo.txt2021-12-04 11:40 3.1K
[   ]dumpspecialfiles.json2021-12-04 11:39 127
[   ]dumpstatus.json2021-12-04 11:39 112K
[HTM]index.html2021-12-04 11:39 86K
[TXT]md5sums-dewiki-20211201-abstract.xml.gz.txt2021-12-02 22:57 66
[TXT]md5sums-dewiki-20211201-abstract1.xml.gz.txt2021-12-02 22:57 67
[TXT]md5sums-dewiki-20211201-abstract2.xml.gz.txt2021-12-02 22:57 67
[TXT]md5sums-dewiki-20211201-abstract3.xml.gz.txt2021-12-02 22:57 67
[TXT]md5sums-dewiki-20211201-abstract4.xml.gz.txt2021-12-02 22:57 67
[TXT]md5sums-dewiki-20211201-abstract5.xml.gz.txt2021-12-02 22:57 67
[TXT]md5sums-dewiki-20211201-abstract6.xml.gz.txt2021-12-02 22:57 67
[TXT]md5sums-dewiki-20211201-all-titles-in-ns0.gz.txt2021-12-02 19:39 71
[TXT]md5sums-dewiki-20211201-all-titles.gz.txt2021-12-02 19:39 64
[TXT]md5sums-dewiki-20211201-babel.sql.gz.txt2021-12-01 18:20 63
[TXT]md5sums-dewiki-20211201-category.sql.gz.txt2021-12-01 17:39 66
[TXT]md5sums-dewiki-20211201-categorylinks.sql.gz.txt2021-12-01 17:30 71
[TXT]md5sums-dewiki-20211201-change_tag.sql.gz.txt2021-12-01 17:43 68
[TXT]md5sums-dewiki-20211201-change_tag_def.sql.gz.txt2021-12-01 17:44 72
[TXT]md5sums-dewiki-20211201-externallinks.sql.gz.txt2021-12-01 17:36 71
[TXT]md5sums-dewiki-20211201-flaggedpage_config.sql.gz.txt2021-12-01 17:51 76
[TXT]md5sums-dewiki-20211201-flaggedpage_pending.sql.gz.txt2021-12-01 17:51 77
[TXT]md5sums-dewiki-20211201-flaggedpages.sql.gz.txt2021-12-01 17:44 70
[TXT]md5sums-dewiki-20211201-flaggedrevs.sql.gz.txt2021-12-01 17:50 69
[TXT]md5sums-dewiki-20211201-flaggedrevs_promote.sql.gz.txt2021-12-01 17:51 77
[TXT]md5sums-dewiki-20211201-flaggedrevs_statistics.sql.gz.txt2021-12-01 17:52 80
[TXT]md5sums-dewiki-20211201-flaggedrevs_tracking.sql.gz.txt2021-12-01 17:52 78
[TXT]md5sums-dewiki-20211201-flaggedtemplates.sql.gz.txt2021-12-01 18:17 74
[TXT]md5sums-dewiki-20211201-geo_tags.sql.gz.txt2021-12-01 17:42 66
[TXT]md5sums-dewiki-20211201-image.sql.gz.txt2021-12-01 17:22 63
[TXT]md5sums-dewiki-20211201-imagelinks.sql.gz.txt2021-12-01 17:31 68
[TXT]md5sums-dewiki-20211201-iwlinks.sql.gz.txt2021-12-01 17:42 65
[TXT]md5sums-dewiki-20211201-langlinks.sql.gz.txt2021-12-01 17:37 67
[TXT]md5sums-dewiki-20211201-page.sql.gz.txt2021-12-01 17:40 62
[TXT]md5sums-dewiki-20211201-page_props.sql.gz.txt2021-12-01 17:41 68
[TXT]md5sums-dewiki-20211201-page_restrictions.sql.gz.txt2021-12-01 17:40 75
[TXT]md5sums-dewiki-20211201-pagelinks.sql.gz.txt2021-12-01 17:28 67
[TXT]md5sums-dewiki-20211201-pages-articles-multistream-index.txt.bz2.txt2021-12-02 03:46 91
[TXT]md5sums-dewiki-20211201-pages-articles-multistream-index1.txt-p1p297012.bz2.txt2021-12-02 03:29 102
[TXT]md5sums-dewiki-20211201-pages-articles-multistream-index2.txt-p297013p1262093.bz2.txt2021-12-02 03:30 108
[TXT]md5sums-dewiki-20211201-pages-articles-multistream-index3.txt-p1262094p2762093.bz2.txt2021-12-02 03:30 109
[TXT]md5sums-dewiki-20211201-pages-articles-multistream-index3.txt-p2762094p3376257.bz2.txt2021-12-02 03:30 109
[TXT]md5sums-dewiki-20211201-pages-articles-multistream-index4.txt-p3376258p4876257.bz2.txt2021-12-02 03:31 109
[TXT]md5sums-dewiki-20211201-pages-articles-multistream-index4.txt-p4876258p6115464.bz2.txt2021-12-02 03:31 109
[TXT]md5sums-dewiki-20211201-pages-articles-multistream-index5.txt-p6115465p7615464.bz2.txt2021-12-02 03:32 109
[TXT]md5sums-dewiki-20211201-pages-articles-multistream-index5.txt-p7615465p9115464.bz2.txt2021-12-02 03:33 109
[TXT]md5sums-dewiki-20211201-pages-articles-multistream-index5.txt-p9115465p9261244.bz2.txt2021-12-02 03:33 109
[TXT]md5sums-dewiki-20211201-pages-articles-multistream-index6.txt-p9261245p10761244.bz2.txt2021-12-02 03:34 110
[TXT]md5sums-dewiki-20211201-pages-articles-multistream-index6.txt-p10761245p12018575.bz2.txt2021-12-02 03:35 111
[TXT]md5sums-dewiki-20211201-pages-articles-multistream.xml.bz2.txt2021-12-02 03:45 85
[TXT]md5sums-dewiki-20211201-pages-articles-multistream1.xml-p1p297012.bz2.txt2021-12-02 03:29 96
[TXT]md5sums-dewiki-20211201-pages-articles-multistream2.xml-p297013p1262093.bz2.txt2021-12-02 03:30 102
[TXT]md5sums-dewiki-20211201-pages-articles-multistream3.xml-p1262094p2762093.bz2.txt2021-12-02 03:30 103
[TXT]md5sums-dewiki-20211201-pages-articles-multistream3.xml-p2762094p3376257.bz2.txt2021-12-02 03:30 103
[TXT]md5sums-dewiki-20211201-pages-articles-multistream4.xml-p3376258p4876257.bz2.txt2021-12-02 03:30 103
[TXT]md5sums-dewiki-20211201-pages-articles-multistream4.xml-p4876258p6115464.bz2.txt2021-12-02 03:31 103
[TXT]md5sums-dewiki-20211201-pages-articles-multistream5.xml-p6115465p7615464.bz2.txt2021-12-02 03:32 103
[TXT]md5sums-dewiki-20211201-pages-articles-multistream5.xml-p7615465p9115464.bz2.txt2021-12-02 03:33 103
[TXT]md5sums-dewiki-20211201-pages-articles-multistream5.xml-p9115465p9261244.bz2.txt2021-12-02 03:33 103
[TXT]md5sums-dewiki-20211201-pages-articles-multistream6.xml-p9261245p10761244.bz2.txt2021-12-02 03:34 104
[TXT]md5sums-dewiki-20211201-pages-articles-multistream6.xml-p10761245p12018575.bz2.txt2021-12-02 03:35 105
[TXT]md5sums-dewiki-20211201-pages-articles.xml.bz2.txt2021-12-02 00:16 73
[TXT]md5sums-dewiki-20211201-pages-articles1.xml-p1p297012.bz2.txt2021-12-01 23:43 84
[TXT]md5sums-dewiki-20211201-pages-articles2.xml-p297013p1262093.bz2.txt2021-12-01 23:43 90
[TXT]md5sums-dewiki-20211201-pages-articles3.xml-p1262094p2762093.bz2.txt2021-12-01 23:43 91
[TXT]md5sums-dewiki-20211201-pages-articles3.xml-p2762094p3376257.bz2.txt2021-12-01 23:44 91
[TXT]md5sums-dewiki-20211201-pages-articles4.xml-p3376258p4876257.bz2.txt2021-12-01 23:44 91
[TXT]md5sums-dewiki-20211201-pages-articles4.xml-p4876258p6115464.bz2.txt2021-12-01 23:44 91
[TXT]md5sums-dewiki-20211201-pages-articles5.xml-p6115465p7615464.bz2.txt2021-12-01 23:44 91
[TXT]md5sums-dewiki-20211201-pages-articles5.xml-p7615465p9115464.bz2.txt2021-12-01 23:45 91
[TXT]md5sums-dewiki-20211201-pages-articles5.xml-p9115465p9261244.bz2.txt2021-12-01 23:45 91
[TXT]md5sums-dewiki-20211201-pages-articles6.xml-p9261245p10761244.bz2.txt2021-12-01 23:45 92
[TXT]md5sums-dewiki-20211201-pages-articles6.xml-p10761245p12018575.bz2.txt2021-12-01 23:46 93
[TXT]md5sums-dewiki-20211201-pages-logging.xml.gz.txt2021-12-02 23:09 71
[TXT]md5sums-dewiki-20211201-pages-logging1.xml.gz.txt2021-12-02 23:08 72
[TXT]md5sums-dewiki-20211201-pages-logging2.xml.gz.txt2021-12-02 23:08 72
[TXT]md5sums-dewiki-20211201-pages-logging3.xml.gz.txt2021-12-02 23:08 72
[TXT]md5sums-dewiki-20211201-pages-logging4.xml.gz.txt2021-12-02 23:08 72
[TXT]md5sums-dewiki-20211201-pages-logging5.xml.gz.txt2021-12-02 23:08 72
[TXT]md5sums-dewiki-20211201-pages-logging6.xml.gz.txt2021-12-02 23:08 72
[TXT]md5sums-dewiki-20211201-pages-meta-current.xml.bz2.txt2021-12-02 10:50 77
[TXT]md5sums-dewiki-20211201-pages-meta-current1.xml-p1p297012.bz2.txt2021-12-02 09:50 88
[TXT]md5sums-dewiki-20211201-pages-meta-current2.xml-p297013p1262093.bz2.txt2021-12-02 09:51 94
[TXT]md5sums-dewiki-20211201-pages-meta-current3.xml-p1262094p2762093.bz2.txt2021-12-02 09:51 95
[TXT]md5sums-dewiki-20211201-pages-meta-current3.xml-p2762094p3376257.bz2.txt2021-12-02 09:52 95
[TXT]md5sums-dewiki-20211201-pages-meta-current4.xml-p3376258p4876257.bz2.txt2021-12-02 09:53 95
[TXT]md5sums-dewiki-20211201-pages-meta-current4.xml-p4876258p6115464.bz2.txt2021-12-02 09:53 95
[TXT]md5sums-dewiki-20211201-pages-meta-current5.xml-p6115465p7615464.bz2.txt2021-12-02 09:53 95
[TXT]md5sums-dewiki-20211201-pages-meta-current5.xml-p7615465p9115464.bz2.txt2021-12-02 09:54 95
[TXT]md5sums-dewiki-20211201-pages-meta-current5.xml-p9115465p9261244.bz2.txt2021-12-02 09:54 95
[TXT]md5sums-dewiki-20211201-pages-meta-current6.xml-p9261245p10761244.bz2.txt2021-12-02 09:55 96
[TXT]md5sums-dewiki-20211201-pages-meta-current6.xml-p10761245p12018588.bz2.txt2021-12-02 09:56 97
[TXT]md5sums-dewiki-20211201-pages-meta-history1.xml-p1p1598.7z.txt2021-12-04 11:14 85
[TXT]md5sums-dewiki-20211201-pages-meta-history1.xml-p1p1598.bz2.txt2021-12-03 23:19 86
[TXT]md5sums-dewiki-20211201-pages-meta-history1.xml-p1599p3226.7z.txt2021-12-04 11:14 88
[TXT]md5sums-dewiki-20211201-pages-meta-history1.xml-p1599p3226.bz2.txt2021-12-03 23:20 89
[TXT]md5sums-dewiki-20211201-pages-meta-history1.xml-p3227p5136.7z.txt2021-12-04 11:14 88
[TXT]md5sums-dewiki-20211201-pages-meta-history1.xml-p3227p5136.bz2.txt2021-12-03 23:21 89
[TXT]md5sums-dewiki-20211201-pages-meta-history1.xml-p5137p6175.7z.txt2021-12-04 11:14 88
[TXT]md5sums-dewiki-20211201-pages-meta-history1.xml-p5137p6175.bz2.txt2021-12-03 23:22 89
[TXT]md5sums-dewiki-20211201-pages-meta-history1.xml-p6176p9109.7z.txt2021-12-04 11:15 88
[TXT]md5sums-dewiki-20211201-pages-meta-history1.xml-p6176p9109.bz2.txt2021-12-03 23:23 89
[TXT]md5sums-dewiki-20211201-pages-meta-history1.xml-p9110p11891.7z.txt2021-12-04 11:15 89
[TXT]md5sums-dewiki-20211201-pages-meta-history1.xml-p9110p11891.bz2.txt2021-12-03 23:24 90
[TXT]md5sums-dewiki-20211201-pages-meta-history1.xml-p11892p15048.7z.txt2021-12-04 11:15 90
[TXT]md5sums-dewiki-20211201-pages-meta-history1.xml-p11892p15048.bz2.txt2021-12-03 23:25 91
[TXT]md5sums-dewiki-20211201-pages-meta-history1.xml-p15049p17986.7z.txt2021-12-04 11:15 90
[TXT]md5sums-dewiki-20211201-pages-meta-history1.xml-p15049p17986.bz2.txt2021-12-03 23:26 91
[TXT]md5sums-dewiki-20211201-pages-meta-history1.xml-p17987p22120.7z.txt2021-12-04 11:15 90
[TXT]md5sums-dewiki-20211201-pages-meta-history1.xml-p17987p22120.bz2.txt2021-12-03 23:27 91
[TXT]md5sums-dewiki-20211201-pages-meta-history1.xml-p22121p28991.7z.txt2021-12-04 11:15 90
[TXT]md5sums-dewiki-20211201-pages-meta-history1.xml-p22121p28991.bz2.txt2021-12-03 23:28 91
[TXT]md5sums-dewiki-20211201-pages-meta-history1.xml-p28992p33794.7z.txt2021-12-04 11:15 90
[TXT]md5sums-dewiki-20211201-pages-meta-history1.xml-p28992p33794.bz2.txt2021-12-03 23:29 91
[TXT]md5sums-dewiki-20211201-pages-meta-history1.xml-p33795p41625.7z.txt2021-12-04 11:15 90
[TXT]md5sums-dewiki-20211201-pages-meta-history1.xml-p33795p41625.bz2.txt2021-12-03 23:30 91
[TXT]md5sums-dewiki-20211201-pages-meta-history1.xml-p41626p49817.7z.txt2021-12-04 11:15 90
[TXT]md5sums-dewiki-20211201-pages-meta-history1.xml-p41626p49817.bz2.txt2021-12-03 23:31 91
[TXT]md5sums-dewiki-20211201-pages-meta-history1.xml-p49818p57509.7z.txt2021-12-04 11:15 90
[TXT]md5sums-dewiki-20211201-pages-meta-history1.xml-p49818p57509.bz2.txt2021-12-03 23:32 91
[TXT]md5sums-dewiki-20211201-pages-meta-history1.xml-p57510p69033.7z.txt2021-12-04 11:16 90
[TXT]md5sums-dewiki-20211201-pages-meta-history1.xml-p57510p69033.bz2.txt2021-12-03 23:33 91
[TXT]md5sums-dewiki-20211201-pages-meta-history1.xml-p69034p77682.7z.txt2021-12-04 11:16 90
[TXT]md5sums-dewiki-20211201-pages-meta-history1.xml-p69034p77682.bz2.txt2021-12-03 23:35 91
[TXT]md5sums-dewiki-20211201-pages-meta-history1.xml-p77683p90942.7z.txt2021-12-04 11:16 90
[TXT]md5sums-dewiki-20211201-pages-meta-history1.xml-p77683p90942.bz2.txt2021-12-03 23:36 91
[TXT]md5sums-dewiki-20211201-pages-meta-history1.xml-p90943p103232.7z.txt2021-12-04 11:16 91
[TXT]md5sums-dewiki-20211201-pages-meta-history1.xml-p90943p103232.bz2.txt2021-12-03 23:36 92
[TXT]md5sums-dewiki-20211201-pages-meta-history1.xml-p103233p118230.7z.txt2021-12-04 11:16 92
[TXT]md5sums-dewiki-20211201-pages-meta-history1.xml-p103233p118230.bz2.txt2021-12-03 23:37 93
[TXT]md5sums-dewiki-20211201-pages-meta-history1.xml-p118231p132687.7z.txt2021-12-04 11:16 92
[TXT]md5sums-dewiki-20211201-pages-meta-history1.xml-p118231p132687.bz2.txt2021-12-03 23:38 93
[TXT]md5sums-dewiki-20211201-pages-meta-history1.xml-p132688p147973.7z.txt2021-12-04 11:16 92
[TXT]md5sums-dewiki-20211201-pages-meta-history1.xml-p132688p147973.bz2.txt2021-12-03 23:39 93
[TXT]md5sums-dewiki-20211201-pages-meta-history1.xml-p147974p164913.7z.txt2021-12-04 11:16 92
[TXT]md5sums-dewiki-20211201-pages-meta-history1.xml-p147974p164913.bz2.txt2021-12-03 23:39 93
[TXT]md5sums-dewiki-20211201-pages-meta-history1.xml-p164914p182563.7z.txt2021-12-04 11:17 92
[TXT]md5sums-dewiki-20211201-pages-meta-history1.xml-p164914p182563.bz2.txt2021-12-03 23:40 93
[TXT]md5sums-dewiki-20211201-pages-meta-history1.xml-p182564p202493.7z.txt2021-12-04 11:17 92
[TXT]md5sums-dewiki-20211201-pages-meta-history1.xml-p182564p202493.bz2.txt2021-12-03 23:41 93
[TXT]md5sums-dewiki-20211201-pages-meta-history1.xml-p202494p223393.7z.txt2021-12-04 11:17 92
[TXT]md5sums-dewiki-20211201-pages-meta-history1.xml-p202494p223393.bz2.txt2021-12-03 23:41 93
[TXT]md5sums-dewiki-20211201-pages-meta-history1.xml-p223394p247206.7z.txt2021-12-04 11:17 92
[TXT]md5sums-dewiki-20211201-pages-meta-history1.xml-p223394p247206.bz2.txt2021-12-03 23:42 93
[TXT]md5sums-dewiki-20211201-pages-meta-history1.xml-p247207p270405.7z.txt2021-12-04 11:17 92
[TXT]md5sums-dewiki-20211201-pages-meta-history1.xml-p247207p270405.bz2.txt2021-12-03 23:42 93
[TXT]md5sums-dewiki-20211201-pages-meta-history1.xml-p270406p294004.7z.txt2021-12-04 11:17 92
[TXT]md5sums-dewiki-20211201-pages-meta-history1.xml-p270406p294004.bz2.txt2021-12-03 23:43 93
[TXT]md5sums-dewiki-20211201-pages-meta-history1.xml-p294005p297012.7z.txt2021-12-04 11:17 92
[TXT]md5sums-dewiki-20211201-pages-meta-history1.xml-p294005p297012.bz2.txt2021-12-03 23:43 93
[TXT]md5sums-dewiki-20211201-pages-meta-history2.xml-p297013p323346.7z.txt2021-12-04 11:17 92
[TXT]md5sums-dewiki-20211201-pages-meta-history2.xml-p297013p323346.bz2.txt2021-12-03 23:44 93
[TXT]md5sums-dewiki-20211201-pages-meta-history2.xml-p323347p350360.7z.txt2021-12-04 11:17 92
[TXT]md5sums-dewiki-20211201-pages-meta-history2.xml-p323347p350360.bz2.txt2021-12-03 23:44 93
[TXT]md5sums-dewiki-20211201-pages-meta-history2.xml-p350361p379968.7z.txt2021-12-04 11:18 92
[TXT]md5sums-dewiki-20211201-pages-meta-history2.xml-p350361p379968.bz2.txt2021-12-03 23:45 93
[TXT]md5sums-dewiki-20211201-pages-meta-history2.xml-p379969p411835.7z.txt2021-12-04 11:18 92
[TXT]md5sums-dewiki-20211201-pages-meta-history2.xml-p379969p411835.bz2.txt2021-12-03 23:46 93
[TXT]md5sums-dewiki-20211201-pages-meta-history2.xml-p411836p444478.7z.txt2021-12-04 11:18 92
[TXT]md5sums-dewiki-20211201-pages-meta-history2.xml-p411836p444478.bz2.txt2021-12-03 23:46 93
[TXT]md5sums-dewiki-20211201-pages-meta-history2.xml-p444479p473698.7z.txt2021-12-04 11:18 92
[TXT]md5sums-dewiki-20211201-pages-meta-history2.xml-p444479p473698.bz2.txt2021-12-03 23:47 93
[TXT]md5sums-dewiki-20211201-pages-meta-history2.xml-p473699p502797.7z.txt2021-12-04 11:18 92
[TXT]md5sums-dewiki-20211201-pages-meta-history2.xml-p473699p502797.bz2.txt2021-12-03 23:47 93
[TXT]md5sums-dewiki-20211201-pages-meta-history2.xml-p502798p542149.7z.txt2021-12-04 11:18 92
[TXT]md5sums-dewiki-20211201-pages-meta-history2.xml-p502798p542149.bz2.txt2021-12-03 23:48 93
[TXT]md5sums-dewiki-20211201-pages-meta-history2.xml-p542150p582400.7z.txt2021-12-04 11:18 92
[TXT]md5sums-dewiki-20211201-pages-meta-history2.xml-p542150p582400.bz2.txt2021-12-03 23:48 93
[TXT]md5sums-dewiki-20211201-pages-meta-history2.xml-p582401p620123.7z.txt2021-12-04 11:18 92
[TXT]md5sums-dewiki-20211201-pages-meta-history2.xml-p582401p620123.bz2.txt2021-12-03 23:49 93
[TXT]md5sums-dewiki-20211201-pages-meta-history2.xml-p620124p663792.7z.txt2021-12-04 11:19 92
[TXT]md5sums-dewiki-20211201-pages-meta-history2.xml-p620124p663792.bz2.txt2021-12-03 23:50 93
[TXT]md5sums-dewiki-20211201-pages-meta-history2.xml-p663793p697767.7z.txt2021-12-04 11:19 92
[TXT]md5sums-dewiki-20211201-pages-meta-history2.xml-p663793p697767.bz2.txt2021-12-03 23:52 93
[TXT]md5sums-dewiki-20211201-pages-meta-history2.xml-p697768p733227.7z.txt2021-12-04 11:19 92
[TXT]md5sums-dewiki-20211201-pages-meta-history2.xml-p697768p733227.bz2.txt2021-12-03 23:54 93
[TXT]md5sums-dewiki-20211201-pages-meta-history2.xml-p733228p774781.7z.txt2021-12-04 11:19 92
[TXT]md5sums-dewiki-20211201-pages-meta-history2.xml-p733228p774781.bz2.txt2021-12-03 23:55 93
[TXT]md5sums-dewiki-20211201-pages-meta-history2.xml-p774782p817956.7z.txt2021-12-04 11:19 92
[TXT]md5sums-dewiki-20211201-pages-meta-history2.xml-p774782p817956.bz2.txt2021-12-03 23:57 93
[TXT]md5sums-dewiki-20211201-pages-meta-history2.xml-p817957p859002.7z.txt2021-12-04 11:19 92
[TXT]md5sums-dewiki-20211201-pages-meta-history2.xml-p817957p859002.bz2.txt2021-12-03 23:59 93
[TXT]md5sums-dewiki-20211201-pages-meta-history2.xml-p859003p904851.7z.txt2021-12-04 11:19 92
[TXT]md5sums-dewiki-20211201-pages-meta-history2.xml-p859003p904851.bz2.txt2021-12-04 00:00 93
[TXT]md5sums-dewiki-20211201-pages-meta-history2.xml-p904852p957586.7z.txt2021-12-04 11:19 92
[TXT]md5sums-dewiki-20211201-pages-meta-history2.xml-p904852p957586.bz2.txt2021-12-04 00:01 93
[TXT]md5sums-dewiki-20211201-pages-meta-history2.xml-p957587p1004545.7z.txt2021-12-04 11:20 93
[TXT]md5sums-dewiki-20211201-pages-meta-history2.xml-p957587p1004545.bz2.txt2021-12-04 00:02 94
[TXT]md5sums-dewiki-20211201-pages-meta-history2.xml-p1004546p1054543.7z.txt2021-12-04 11:20 94
[TXT]md5sums-dewiki-20211201-pages-meta-history2.xml-p1004546p1054543.bz2.txt2021-12-04 00:03 95
[TXT]md5sums-dewiki-20211201-pages-meta-history2.xml-p1054544p1116046.7z.txt2021-12-04 11:20 94
[TXT]md5sums-dewiki-20211201-pages-meta-history2.xml-p1054544p1116046.bz2.txt2021-12-04 00:05 95
[TXT]md5sums-dewiki-20211201-pages-meta-history2.xml-p1116047p1171919.7z.txt2021-12-04 11:20 94
[TXT]md5sums-dewiki-20211201-pages-meta-history2.xml-p1116047p1171919.bz2.txt2021-12-04 00:06 95
[TXT]md5sums-dewiki-20211201-pages-meta-history2.xml-p1171920p1230276.7z.txt2021-12-04 11:20 94
[TXT]md5sums-dewiki-20211201-pages-meta-history2.xml-p1171920p1230276.bz2.txt2021-12-04 00:07 95
[TXT]md5sums-dewiki-20211201-pages-meta-history2.xml-p1230277p1262093.7z.txt2021-12-04 11:20 94
[TXT]md5sums-dewiki-20211201-pages-meta-history2.xml-p1230277p1262093.bz2.txt2021-12-04 00:08 95
[TXT]md5sums-dewiki-20211201-pages-meta-history3.xml-p1262094p1321768.7z.txt2021-12-04 11:20 94
[TXT]md5sums-dewiki-20211201-pages-meta-history3.xml-p1262094p1321768.bz2.txt2021-12-04 00:09 95
[TXT]md5sums-dewiki-20211201-pages-meta-history3.xml-p1321769p1383471.7z.txt2021-12-04 11:21 94
[TXT]md5sums-dewiki-20211201-pages-meta-history3.xml-p1321769p1383471.bz2.txt2021-12-04 00:10 95
[TXT]md5sums-dewiki-20211201-pages-meta-history3.xml-p1383472p1445886.7z.txt2021-12-04 11:21 94
[TXT]md5sums-dewiki-20211201-pages-meta-history3.xml-p1383472p1445886.bz2.txt2021-12-04 00:11 95
[TXT]md5sums-dewiki-20211201-pages-meta-history3.xml-p1445887p1515865.7z.txt2021-12-04 11:21 94
[TXT]md5sums-dewiki-20211201-pages-meta-history3.xml-p1445887p1515865.bz2.txt2021-12-04 00:13 95
[TXT]md5sums-dewiki-20211201-pages-meta-history3.xml-p1515866p1587024.7z.txt2021-12-04 11:21 94
[TXT]md5sums-dewiki-20211201-pages-meta-history3.xml-p1515866p1587024.bz2.txt2021-12-04 00:14 95
[TXT]md5sums-dewiki-20211201-pages-meta-history3.xml-p1587025p1656122.7z.txt2021-12-04 11:21 94
[TXT]md5sums-dewiki-20211201-pages-meta-history3.xml-p1587025p1656122.bz2.txt2021-12-04 00:15 95
[TXT]md5sums-dewiki-20211201-pages-meta-history3.xml-p1656123p1724667.7z.txt2021-12-04 11:21 94
[TXT]md5sums-dewiki-20211201-pages-meta-history3.xml-p1656123p1724667.bz2.txt2021-12-04 00:16 95
[TXT]md5sums-dewiki-20211201-pages-meta-history3.xml-p1724668p1797111.7z.txt2021-12-04 11:21 94
[TXT]md5sums-dewiki-20211201-pages-meta-history3.xml-p1724668p1797111.bz2.txt2021-12-04 00:17 95
[TXT]md5sums-dewiki-20211201-pages-meta-history3.xml-p1797112p1874205.7z.txt2021-12-04 11:22 94
[TXT]md5sums-dewiki-20211201-pages-meta-history3.xml-p1797112p1874205.bz2.txt2021-12-04 00:19 95
[TXT]md5sums-dewiki-20211201-pages-meta-history3.xml-p1874206p1958743.7z.txt2021-12-04 11:22 94
[TXT]md5sums-dewiki-20211201-pages-meta-history3.xml-p1874206p1958743.bz2.txt2021-12-04 00:20 95
[TXT]md5sums-dewiki-20211201-pages-meta-history3.xml-p1958744p2069347.7z.txt2021-12-04 11:22 94
[TXT]md5sums-dewiki-20211201-pages-meta-history3.xml-p1958744p2069347.bz2.txt2021-12-04 00:21 95
[TXT]md5sums-dewiki-20211201-pages-meta-history3.xml-p2069348p2155603.7z.txt2021-12-04 11:22 94
[TXT]md5sums-dewiki-20211201-pages-meta-history3.xml-p2069348p2155603.bz2.txt2021-12-04 00:22 95
[TXT]md5sums-dewiki-20211201-pages-meta-history3.xml-p2155604p2256513.7z.txt2021-12-04 11:22 94
[TXT]md5sums-dewiki-20211201-pages-meta-history3.xml-p2155604p2256513.bz2.txt2021-12-04 00:24 95
[TXT]md5sums-dewiki-20211201-pages-meta-history3.xml-p2256514p2359696.7z.txt2021-12-04 11:22 94
[TXT]md5sums-dewiki-20211201-pages-meta-history3.xml-p2256514p2359696.bz2.txt2021-12-04 00:25 95
[TXT]md5sums-dewiki-20211201-pages-meta-history3.xml-p2359697p2478689.7z.txt2021-12-04 11:23 94
[TXT]md5sums-dewiki-20211201-pages-meta-history3.xml-p2359697p2478689.bz2.txt2021-12-04 00:26 95
[TXT]md5sums-dewiki-20211201-pages-meta-history3.xml-p2478690p2593579.7z.txt2021-12-04 11:23 94
[TXT]md5sums-dewiki-20211201-pages-meta-history3.xml-p2478690p2593579.bz2.txt2021-12-04 00:28 95
[TXT]md5sums-dewiki-20211201-pages-meta-history3.xml-p2593580p2691990.7z.txt2021-12-04 11:23 94
[TXT]md5sums-dewiki-20211201-pages-meta-history3.xml-p2593580p2691990.bz2.txt2021-12-04 00:30 95
[TXT]md5sums-dewiki-20211201-pages-meta-history3.xml-p2691991p2782090.7z.txt2021-12-04 11:23 94
[TXT]md5sums-dewiki-20211201-pages-meta-history3.xml-p2691991p2782090.bz2.txt2021-12-04 00:32 95
[TXT]md5sums-dewiki-20211201-pages-meta-history3.xml-p2782091p2873810.7z.txt2021-12-04 11:23 94
[TXT]md5sums-dewiki-20211201-pages-meta-history3.xml-p2782091p2873810.bz2.txt2021-12-04 00:33 95
[TXT]md5sums-dewiki-20211201-pages-meta-history3.xml-p2873811p2980259.7z.txt2021-12-04 11:23 94
[TXT]md5sums-dewiki-20211201-pages-meta-history3.xml-p2873811p2980259.bz2.txt2021-12-04 00:34 95
[TXT]md5sums-dewiki-20211201-pages-meta-history3.xml-p2980260p3081763.7z.txt2021-12-04 11:24 94
[TXT]md5sums-dewiki-20211201-pages-meta-history3.xml-p2980260p3081763.bz2.txt2021-12-04 00:36 95
[TXT]md5sums-dewiki-20211201-pages-meta-history3.xml-p3081764p3173455.7z.txt2021-12-04 11:24 94
[TXT]md5sums-dewiki-20211201-pages-meta-history3.xml-p3081764p3173455.bz2.txt2021-12-04 00:37 95
[TXT]md5sums-dewiki-20211201-pages-meta-history3.xml-p3173456p3295635.7z.txt2021-12-04 11:24 94
[TXT]md5sums-dewiki-20211201-pages-meta-history3.xml-p3173456p3295635.bz2.txt2021-12-04 00:38 95
[TXT]md5sums-dewiki-20211201-pages-meta-history3.xml-p3295636p3376257.7z.txt2021-12-04 11:24 94
[TXT]md5sums-dewiki-20211201-pages-meta-history3.xml-p3295636p3376257.bz2.txt2021-12-04 00:39 95
[TXT]md5sums-dewiki-20211201-pages-meta-history4.xml-p3376258p3477755.7z.txt2021-12-04 11:24 94
[TXT]md5sums-dewiki-20211201-pages-meta-history4.xml-p3376258p3477755.bz2.txt2021-12-04 00:40 95
[TXT]md5sums-dewiki-20211201-pages-meta-history4.xml-p3477756p3591375.7z.txt2021-12-04 11:24 94
[TXT]md5sums-dewiki-20211201-pages-meta-history4.xml-p3477756p3591375.bz2.txt2021-12-04 00:41 95
[TXT]md5sums-dewiki-20211201-pages-meta-history4.xml-p3591376p3697549.7z.txt2021-12-04 11:24 94
[TXT]md5sums-dewiki-20211201-pages-meta-history4.xml-p3591376p3697549.bz2.txt2021-12-04 00:42 95
[TXT]md5sums-dewiki-20211201-pages-meta-history4.xml-p3697550p3801048.7z.txt2021-12-04 11:25 94
[TXT]md5sums-dewiki-20211201-pages-meta-history4.xml-p3697550p3801048.bz2.txt2021-12-04 00:44 95
[TXT]md5sums-dewiki-20211201-pages-meta-history4.xml-p3801049p3906041.7z.txt2021-12-04 11:25 94
[TXT]md5sums-dewiki-20211201-pages-meta-history4.xml-p3801049p3906041.bz2.txt2021-12-04 00:45 95
[TXT]md5sums-dewiki-20211201-pages-meta-history4.xml-p3906042p4030877.7z.txt2021-12-04 11:25 94
[TXT]md5sums-dewiki-20211201-pages-meta-history4.xml-p3906042p4030877.bz2.txt2021-12-04 00:46 95
[TXT]md5sums-dewiki-20211201-pages-meta-history4.xml-p4030878p4133916.7z.txt2021-12-04 11:25 94
[TXT]md5sums-dewiki-20211201-pages-meta-history4.xml-p4030878p4133916.bz2.txt2021-12-04 00:47 95
[TXT]md5sums-dewiki-20211201-pages-meta-history4.xml-p4133917p4249445.7z.txt2021-12-04 11:25 94
[TXT]md5sums-dewiki-20211201-pages-meta-history4.xml-p4133917p4249445.bz2.txt2021-12-04 00:49 95
[TXT]md5sums-dewiki-20211201-pages-meta-history4.xml-p4249446p4329642.7z.txt2021-12-04 11:25 94
[TXT]md5sums-dewiki-20211201-pages-meta-history4.xml-p4249446p4329642.bz2.txt2021-12-04 00:50 95
[TXT]md5sums-dewiki-20211201-pages-meta-history4.xml-p4329643p4366801.7z.txt2021-12-04 11:26 94
[TXT]md5sums-dewiki-20211201-pages-meta-history4.xml-p4329643p4366801.bz2.txt2021-12-04 00:52 95
[TXT]md5sums-dewiki-20211201-pages-meta-history4.xml-p4366802p4468278.7z.txt2021-12-04 11:26 94
[TXT]md5sums-dewiki-20211201-pages-meta-history4.xml-p4366802p4468278.bz2.txt2021-12-04 00:54 95
[TXT]md5sums-dewiki-20211201-pages-meta-history4.xml-p4468279p4551155.7z.txt2021-12-04 11:26 94
[TXT]md5sums-dewiki-20211201-pages-meta-history4.xml-p4468279p4551155.bz2.txt2021-12-04 00:56 95
[TXT]md5sums-dewiki-20211201-pages-meta-history4.xml-p4551156p4662910.7z.txt2021-12-04 11:26 94
[TXT]md5sums-dewiki-20211201-pages-meta-history4.xml-p4551156p4662910.bz2.txt2021-12-04 00:58 95
[TXT]md5sums-dewiki-20211201-pages-meta-history4.xml-p4662911p4792154.7z.txt2021-12-04 11:26 94
[TXT]md5sums-dewiki-20211201-pages-meta-history4.xml-p4662911p4792154.bz2.txt2021-12-04 01:00 95
[TXT]md5sums-dewiki-20211201-pages-meta-history4.xml-p4792155p4898825.7z.txt2021-12-04 11:27 94
[TXT]md5sums-dewiki-20211201-pages-meta-history4.xml-p4792155p4898825.bz2.txt2021-12-04 01:02 95
[TXT]md5sums-dewiki-20211201-pages-meta-history4.xml-p4898826p5003717.7z.txt2021-12-04 11:27 94
[TXT]md5sums-dewiki-20211201-pages-meta-history4.xml-p4898826p5003717.bz2.txt2021-12-04 01:04 95
[TXT]md5sums-dewiki-20211201-pages-meta-history4.xml-p5003718p5100284.7z.txt2021-12-04 11:27 94
[TXT]md5sums-dewiki-20211201-pages-meta-history4.xml-p5003718p5100284.bz2.txt2021-12-04 01:06 95
[TXT]md5sums-dewiki-20211201-pages-meta-history4.xml-p5100285p5235816.7z.txt2021-12-04 11:27 94
[TXT]md5sums-dewiki-20211201-pages-meta-history4.xml-p5100285p5235816.bz2.txt2021-12-04 01:08 95
[TXT]md5sums-dewiki-20211201-pages-meta-history4.xml-p5235817p5342247.7z.txt2021-12-04 11:27 94
[TXT]md5sums-dewiki-20211201-pages-meta-history4.xml-p5235817p5342247.bz2.txt2021-12-04 01:09 95
[TXT]md5sums-dewiki-20211201-pages-meta-history4.xml-p5342248p5460858.7z.txt2021-12-04 11:27 94
[TXT]md5sums-dewiki-20211201-pages-meta-history4.xml-p5342248p5460858.bz2.txt2021-12-04 01:10 95
[TXT]md5sums-dewiki-20211201-pages-meta-history4.xml-p5460859p5568700.7z.txt2021-12-04 11:28 94
[TXT]md5sums-dewiki-20211201-pages-meta-history4.xml-p5460859p5568700.bz2.txt2021-12-04 01:12 95
[TXT]md5sums-dewiki-20211201-pages-meta-history4.xml-p5568701p5691976.7z.txt2021-12-04 11:28 94
[TXT]md5sums-dewiki-20211201-pages-meta-history4.xml-p5568701p5691976.bz2.txt2021-12-04 01:13 95
[TXT]md5sums-dewiki-20211201-pages-meta-history4.xml-p5691977p5826120.7z.txt2021-12-04 11:28 94
[TXT]md5sums-dewiki-20211201-pages-meta-history4.xml-p5691977p5826120.bz2.txt2021-12-04 01:15 95
[TXT]md5sums-dewiki-20211201-pages-meta-history4.xml-p5826121p5924203.7z.txt2021-12-04 11:28 94
[TXT]md5sums-dewiki-20211201-pages-meta-history4.xml-p5826121p5924203.bz2.txt2021-12-04 01:16 95
[TXT]md5sums-dewiki-20211201-pages-meta-history4.xml-p5924204p6042723.7z.txt2021-12-04 11:28 94
[TXT]md5sums-dewiki-20211201-pages-meta-history4.xml-p5924204p6042723.bz2.txt2021-12-04 01:17 95
[TXT]md5sums-dewiki-20211201-pages-meta-history4.xml-p6042724p6115464.7z.txt2021-12-04 11:28 94
[TXT]md5sums-dewiki-20211201-pages-meta-history4.xml-p6042724p6115464.bz2.txt2021-12-04 01:19 95
[TXT]md5sums-dewiki-20211201-pages-meta-history5.xml-p6115465p6240991.7z.txt2021-12-04 11:29 94
[TXT]md5sums-dewiki-20211201-pages-meta-history5.xml-p6115465p6240991.bz2.txt2021-12-04 01:22 95
[TXT]md5sums-dewiki-20211201-pages-meta-history5.xml-p6240992p6332298.7z.txt2021-12-04 11:29 94
[TXT]md5sums-dewiki-20211201-pages-meta-history5.xml-p6240992p6332298.bz2.txt2021-12-04 01:24 95
[TXT]md5sums-dewiki-20211201-pages-meta-history5.xml-p6332299p6424537.7z.txt2021-12-04 11:29 94
[TXT]md5sums-dewiki-20211201-pages-meta-history5.xml-p6332299p6424537.bz2.txt2021-12-04 01:26 95
[TXT]md5sums-dewiki-20211201-pages-meta-history5.xml-p6424538p6516772.7z.txt2021-12-04 11:29 94
[TXT]md5sums-dewiki-20211201-pages-meta-history5.xml-p6424538p6516772.bz2.txt2021-12-04 01:28 95
[TXT]md5sums-dewiki-20211201-pages-meta-history5.xml-p6516773p6529937.7z.txt2021-12-04 11:29 94
[TXT]md5sums-dewiki-20211201-pages-meta-history5.xml-p6516773p6529937.bz2.txt2021-12-04 01:32 95
[TXT]md5sums-dewiki-20211201-pages-meta-history5.xml-p6529938p6612046.7z.txt2021-12-04 11:29 94
[TXT]md5sums-dewiki-20211201-pages-meta-history5.xml-p6529938p6612046.bz2.txt2021-12-04 01:37 95
[TXT]md5sums-dewiki-20211201-pages-meta-history5.xml-p6612047p6678845.7z.txt2021-12-04 11:30 94
[TXT]md5sums-dewiki-20211201-pages-meta-history5.xml-p6612047p6678845.bz2.txt2021-12-04 01:43 95
[TXT]md5sums-dewiki-20211201-pages-meta-history5.xml-p6678846p6745150.7z.txt2021-12-04 11:30 94
[TXT]md5sums-dewiki-20211201-pages-meta-history5.xml-p6678846p6745150.bz2.txt2021-12-04 01:47 95
[TXT]md5sums-dewiki-20211201-pages-meta-history5.xml-p6745151p6858587.7z.txt2021-12-04 11:30 94
[TXT]md5sums-dewiki-20211201-pages-meta-history5.xml-p6745151p6858587.bz2.txt2021-12-04 01:50 95
[TXT]md5sums-dewiki-20211201-pages-meta-history5.xml-p6858588p6974525.7z.txt2021-12-04 11:30 94
[TXT]md5sums-dewiki-20211201-pages-meta-history5.xml-p6858588p6974525.bz2.txt2021-12-04 01:54 95
[TXT]md5sums-dewiki-20211201-pages-meta-history5.xml-p6974526p7041465.7z.txt2021-12-04 11:30 94
[TXT]md5sums-dewiki-20211201-pages-meta-history5.xml-p6974526p7041465.bz2.txt2021-12-04 01:57 95
[TXT]md5sums-dewiki-20211201-pages-meta-history5.xml-p7041466p7076412.7z.txt2021-12-04 11:31 94
[TXT]md5sums-dewiki-20211201-pages-meta-history5.xml-p7041466p7076412.bz2.txt2021-12-04 02:02 95
[TXT]md5sums-dewiki-20211201-pages-meta-history5.xml-p7076413p7165975.7z.txt2021-12-04 11:31 94
[TXT]md5sums-dewiki-20211201-pages-meta-history5.xml-p7076413p7165975.bz2.txt2021-12-04 02:05 95
[TXT]md5sums-dewiki-20211201-pages-meta-history5.xml-p7165976p7376675.7z.txt2021-12-04 11:31 94
[TXT]md5sums-dewiki-20211201-pages-meta-history5.xml-p7165976p7376675.bz2.txt2021-12-04 02:06 95
[TXT]md5sums-dewiki-20211201-pages-meta-history5.xml-p7376676p7513293.7z.txt2021-12-04 11:31 94
[TXT]md5sums-dewiki-20211201-pages-meta-history5.xml-p7376676p7513293.bz2.txt2021-12-04 02:08 95
[TXT]md5sums-dewiki-20211201-pages-meta-history5.xml-p7513294p7637959.7z.txt2021-12-04 11:31 94
[TXT]md5sums-dewiki-20211201-pages-meta-history5.xml-p7513294p7637959.bz2.txt2021-12-04 02:09 95
[TXT]md5sums-dewiki-20211201-pages-meta-history5.xml-p7637960p7754916.7z.txt2021-12-04 11:31 94
[TXT]md5sums-dewiki-20211201-pages-meta-history5.xml-p7637960p7754916.bz2.txt2021-12-04 02:11 95
[TXT]md5sums-dewiki-20211201-pages-meta-history5.xml-p7754917p7883266.7z.txt2021-12-04 11:32 94
[TXT]md5sums-dewiki-20211201-pages-meta-history5.xml-p7754917p7883266.bz2.txt2021-12-04 02:13 95
[TXT]md5sums-dewiki-20211201-pages-meta-history5.xml-p7883267p8020452.7z.txt2021-12-04 11:32 94
[TXT]md5sums-dewiki-20211201-pages-meta-history5.xml-p7883267p8020452.bz2.txt2021-12-04 02:15 95
[TXT]md5sums-dewiki-20211201-pages-meta-history5.xml-p8020453p8131042.7z.txt2021-12-04 11:32 94
[TXT]md5sums-dewiki-20211201-pages-meta-history5.xml-p8020453p8131042.bz2.txt2021-12-04 02:16 95
[TXT]md5sums-dewiki-20211201-pages-meta-history5.xml-p8131043p8240286.7z.txt2021-12-04 11:32 94
[TXT]md5sums-dewiki-20211201-pages-meta-history5.xml-p8131043p8240286.bz2.txt2021-12-04 02:18 95
[TXT]md5sums-dewiki-20211201-pages-meta-history5.xml-p8240287p8378375.7z.txt2021-12-04 11:32 94
[TXT]md5sums-dewiki-20211201-pages-meta-history5.xml-p8240287p8378375.bz2.txt2021-12-04 02:19 95
[TXT]md5sums-dewiki-20211201-pages-meta-history5.xml-p8378376p8505543.7z.txt2021-12-04 11:33 94
[TXT]md5sums-dewiki-20211201-pages-meta-history5.xml-p8378376p8505543.bz2.txt2021-12-04 02:20 95
[TXT]md5sums-dewiki-20211201-pages-meta-history5.xml-p8505544p8637874.7z.txt2021-12-04 11:33 94
[TXT]md5sums-dewiki-20211201-pages-meta-history5.xml-p8505544p8637874.bz2.txt2021-12-04 02:21 95
[TXT]md5sums-dewiki-20211201-pages-meta-history5.xml-p8637875p8863015.7z.txt2021-12-04 11:33 94
[TXT]md5sums-dewiki-20211201-pages-meta-history5.xml-p8637875p8863015.bz2.txt2021-12-04 02:22 95
[TXT]md5sums-dewiki-20211201-pages-meta-history5.xml-p8863016p8972208.7z.txt2021-12-04 11:33 94
[TXT]md5sums-dewiki-20211201-pages-meta-history5.xml-p8863016p8972208.bz2.txt2021-12-04 02:23 95
[TXT]md5sums-dewiki-20211201-pages-meta-history5.xml-p8972209p9065062.7z.txt2021-12-04 11:33 94
[TXT]md5sums-dewiki-20211201-pages-meta-history5.xml-p8972209p9065062.bz2.txt2021-12-04 02:24 95
[TXT]md5sums-dewiki-20211201-pages-meta-history5.xml-p9065063p9082351.7z.txt2021-12-04 11:34 94
[TXT]md5sums-dewiki-20211201-pages-meta-history5.xml-p9065063p9082351.bz2.txt2021-12-04 02:29 95
[TXT]md5sums-dewiki-20211201-pages-meta-history5.xml-p9082352p9197169.7z.txt2021-12-04 11:34 94
[TXT]md5sums-dewiki-20211201-pages-meta-history5.xml-p9082352p9197169.bz2.txt2021-12-04 02:33 95
[TXT]md5sums-dewiki-20211201-pages-meta-history5.xml-p9197170p9261244.7z.txt2021-12-04 11:34 94
[TXT]md5sums-dewiki-20211201-pages-meta-history5.xml-p9197170p9261244.bz2.txt2021-12-04 02:34 95
[TXT]md5sums-dewiki-20211201-pages-meta-history6.xml-p9261245p9460135.7z.txt2021-12-04 11:34 94
[TXT]md5sums-dewiki-20211201-pages-meta-history6.xml-p9261245p9460135.bz2.txt2021-12-04 02:35 95
[TXT]md5sums-dewiki-20211201-pages-meta-history6.xml-p9460136p9600978.7z.txt2021-12-04 11:34 94
[TXT]md5sums-dewiki-20211201-pages-meta-history6.xml-p9460136p9600978.bz2.txt2021-12-04 02:36 95
[TXT]md5sums-dewiki-20211201-pages-meta-history6.xml-p9600979p9657685.7z.txt2021-12-04 11:34 94
[TXT]md5sums-dewiki-20211201-pages-meta-history6.xml-p9600979p9657685.bz2.txt2021-12-04 02:37 95
[TXT]md5sums-dewiki-20211201-pages-meta-history6.xml-p9657686p9740494.7z.txt2021-12-04 11:35 94
[TXT]md5sums-dewiki-20211201-pages-meta-history6.xml-p9657686p9740494.bz2.txt2021-12-04 02:39 95
[TXT]md5sums-dewiki-20211201-pages-meta-history6.xml-p9740495p9759826.7z.txt2021-12-04 11:35 94
[TXT]md5sums-dewiki-20211201-pages-meta-history6.xml-p9740495p9759826.bz2.txt2021-12-04 02:41 95
[TXT]md5sums-dewiki-20211201-pages-meta-history6.xml-p9759827p9925680.7z.txt2021-12-04 11:35 94
[TXT]md5sums-dewiki-20211201-pages-meta-history6.xml-p9759827p9925680.bz2.txt2021-12-04 02:42 95
[TXT]md5sums-dewiki-20211201-pages-meta-history6.xml-p9925681p9962732.7z.txt2021-12-04 11:35 94
[TXT]md5sums-dewiki-20211201-pages-meta-history6.xml-p9925681p9962732.bz2.txt2021-12-04 02:44 95
[TXT]md5sums-dewiki-20211201-pages-meta-history6.xml-p9962733p10059299.7z.txt2021-12-04 11:36 95
[TXT]md5sums-dewiki-20211201-pages-meta-history6.xml-p9962733p10059299.bz2.txt2021-12-04 02:45 96
[TXT]md5sums-dewiki-20211201-pages-meta-history6.xml-p10059300p10211965.7z.txt2021-12-04 11:36 96
[TXT]md5sums-dewiki-20211201-pages-meta-history6.xml-p10059300p10211965.bz2.txt2021-12-04 02:46 97
[TXT]md5sums-dewiki-20211201-pages-meta-history6.xml-p10211966p10261657.7z.txt2021-12-04 11:36 96
[TXT]md5sums-dewiki-20211201-pages-meta-history6.xml-p10211966p10261657.bz2.txt2021-12-04 02:48 97
[TXT]md5sums-dewiki-20211201-pages-meta-history6.xml-p10261658p10425034.7z.txt2021-12-04 11:36 96
[TXT]md5sums-dewiki-20211201-pages-meta-history6.xml-p10261658p10425034.bz2.txt2021-12-04 02:49 97
[TXT]md5sums-dewiki-20211201-pages-meta-history6.xml-p10425035p10628186.7z.txt2021-12-04 11:36 96
[TXT]md5sums-dewiki-20211201-pages-meta-history6.xml-p10425035p10628186.bz2.txt2021-12-04 02:50 97
[TXT]md5sums-dewiki-20211201-pages-meta-history6.xml-p10628187p10770779.7z.txt2021-12-04 11:37 96
[TXT]md5sums-dewiki-20211201-pages-meta-history6.xml-p10628187p10770779.bz2.txt2021-12-04 02:52 97
[TXT]md5sums-dewiki-20211201-pages-meta-history6.xml-p10770780p10971313.7z.txt2021-12-04 11:37 96
[TXT]md5sums-dewiki-20211201-pages-meta-history6.xml-p10770780p10971313.bz2.txt2021-12-04 02:53 97
[TXT]md5sums-dewiki-20211201-pages-meta-history6.xml-p10971314p11155167.7z.txt2021-12-04 11:37 96
[TXT]md5sums-dewiki-20211201-pages-meta-history6.xml-p10971314p11155167.bz2.txt2021-12-04 02:54 97
[TXT]md5sums-dewiki-20211201-pages-meta-history6.xml-p11155168p11233854.7z.txt2021-12-04 11:37 96
[TXT]md5sums-dewiki-20211201-pages-meta-history6.xml-p11155168p11233854.bz2.txt2021-12-04 02:56 97
[TXT]md5sums-dewiki-20211201-pages-meta-history6.xml-p11233855p11360825.7z.txt2021-12-04 11:37 96
[TXT]md5sums-dewiki-20211201-pages-meta-history6.xml-p11233855p11360825.bz2.txt2021-12-04 02:57 97
[TXT]md5sums-dewiki-20211201-pages-meta-history6.xml-p11360826p11541020.7z.txt2021-12-04 11:38 96
[TXT]md5sums-dewiki-20211201-pages-meta-history6.xml-p11360826p11541020.bz2.txt2021-12-04 02:59 97
[TXT]md5sums-dewiki-20211201-pages-meta-history6.xml-p11541021p11746643.7z.txt2021-12-04 11:38 96
[TXT]md5sums-dewiki-20211201-pages-meta-history6.xml-p11541021p11746643.bz2.txt2021-12-04 03:00 97
[TXT]md5sums-dewiki-20211201-pages-meta-history6.xml-p11746644p11911283.7z.txt2021-12-04 11:38 96
[TXT]md5sums-dewiki-20211201-pages-meta-history6.xml-p11746644p11911283.bz2.txt2021-12-04 03:02 97
[TXT]md5sums-dewiki-20211201-pages-meta-history6.xml-p11911284p12018588.7z.txt2021-12-04 11:38 96
[TXT]md5sums-dewiki-20211201-pages-meta-history6.xml-p11911284p12018588.bz2.txt2021-12-04 03:03 97
[TXT]md5sums-dewiki-20211201-protected_titles.sql.gz.txt2021-12-01 17:41 74
[TXT]md5sums-dewiki-20211201-redirect.sql.gz.txt2021-12-01 17:41 66
[TXT]md5sums-dewiki-20211201-site_stats.sql.gz.txt2021-12-01 17:22 68
[TXT]md5sums-dewiki-20211201-siteinfo-namespaces.json.gz.txt2021-12-02 19:39 78
[TXT]md5sums-dewiki-20211201-sites.sql.gz.txt2021-12-01 18:19 63
[TXT]md5sums-dewiki-20211201-stub-articles.xml.gz.txt2021-12-01 17:19 71
[TXT]md5sums-dewiki-20211201-stub-articles1.xml.gz.txt2021-12-01 17:01 72
[TXT]md5sums-dewiki-20211201-stub-articles2.xml.gz.txt2021-12-01 17:01 72
[TXT]md5sums-dewiki-20211201-stub-articles3.xml.gz.txt2021-12-01 17:01 72
[TXT]md5sums-dewiki-20211201-stub-articles4.xml.gz.txt2021-12-01 17:01 72
[TXT]md5sums-dewiki-20211201-stub-articles5.xml.gz.txt2021-12-01 17:02 72
[TXT]md5sums-dewiki-20211201-stub-articles6.xml.gz.txt2021-12-01 17:02 72
[TXT]md5sums-dewiki-20211201-stub-meta-current.xml.gz.txt2021-12-01 17:19 75
[TXT]md5sums-dewiki-20211201-stub-meta-current1.xml.gz.txt2021-12-01 17:01 76
[TXT]md5sums-dewiki-20211201-stub-meta-current2.xml.gz.txt2021-12-01 17:01 76
[TXT]md5sums-dewiki-20211201-stub-meta-current3.xml.gz.txt2021-12-01 17:01 76
[TXT]md5sums-dewiki-20211201-stub-meta-current4.xml.gz.txt2021-12-01 17:01 76
[TXT]md5sums-dewiki-20211201-stub-meta-current5.xml.gz.txt2021-12-01 17:01 76
[TXT]md5sums-dewiki-20211201-stub-meta-current6.xml.gz.txt2021-12-01 17:01 76
[TXT]md5sums-dewiki-20211201-stub-meta-history.xml.gz.txt2021-12-01 17:15 75
[TXT]md5sums-dewiki-20211201-stub-meta-history1.xml.gz.txt2021-12-01 16:54 76
[TXT]md5sums-dewiki-20211201-stub-meta-history2.xml.gz.txt2021-12-01 16:55 76
[TXT]md5sums-dewiki-20211201-stub-meta-history3.xml.gz.txt2021-12-01 16:57 76
[TXT]md5sums-dewiki-20211201-stub-meta-history4.xml.gz.txt2021-12-01 16:58 76
[TXT]md5sums-dewiki-20211201-stub-meta-history5.xml.gz.txt2021-12-01 16:59 76
[TXT]md5sums-dewiki-20211201-stub-meta-history6.xml.gz.txt2021-12-01 17:00 76
[TXT]md5sums-dewiki-20211201-templatelinks.sql.gz.txt2021-12-01 17:33 71
[TXT]md5sums-dewiki-20211201-user_former_groups.sql.gz.txt2021-12-01 17:38 76
[TXT]md5sums-dewiki-20211201-user_groups.sql.gz.txt2021-12-01 17:38 69
[TXT]md5sums-dewiki-20211201-wbc_entity_usage.sql.gz.txt2021-12-01 18:20 74
[   ]pagerangeinfo.json2021-12-02 23:24 4.9K
[   ]report.json2021-12-04 11:39 70K
[TXT]sha1sums-dewiki-20211201-abstract.xml.gz.txt2021-12-02 22:57 74
[TXT]sha1sums-dewiki-20211201-abstract1.xml.gz.txt2021-12-02 22:57 75
[TXT]sha1sums-dewiki-20211201-abstract2.xml.gz.txt2021-12-02 22:57 75
[TXT]sha1sums-dewiki-20211201-abstract3.xml.gz.txt2021-12-02 22:57 75
[TXT]sha1sums-dewiki-20211201-abstract4.xml.gz.txt2021-12-02 22:57 75
[TXT]sha1sums-dewiki-20211201-abstract5.xml.gz.txt2021-12-02 22:57 75
[TXT]sha1sums-dewiki-20211201-abstract6.xml.gz.txt2021-12-02 22:57 75
[TXT]sha1sums-dewiki-20211201-all-titles-in-ns0.gz.txt2021-12-02 19:39 79
[TXT]sha1sums-dewiki-20211201-all-titles.gz.txt2021-12-02 19:39 72
[TXT]sha1sums-dewiki-20211201-babel.sql.gz.txt2021-12-01 18:20 71
[TXT]sha1sums-dewiki-20211201-category.sql.gz.txt2021-12-01 17:39 74
[TXT]sha1sums-dewiki-20211201-categorylinks.sql.gz.txt2021-12-01 17:30 79
[TXT]sha1sums-dewiki-20211201-change_tag.sql.gz.txt2021-12-01 17:43 76
[TXT]sha1sums-dewiki-20211201-change_tag_def.sql.gz.txt2021-12-01 17:44 80
[TXT]sha1sums-dewiki-20211201-externallinks.sql.gz.txt2021-12-01 17:36 79
[TXT]sha1sums-dewiki-20211201-flaggedpage_config.sql.gz.txt2021-12-01 17:51 84
[TXT]sha1sums-dewiki-20211201-flaggedpage_pending.sql.gz.txt2021-12-01 17:51 85
[TXT]sha1sums-dewiki-20211201-flaggedpages.sql.gz.txt2021-12-01 17:44 78
[TXT]sha1sums-dewiki-20211201-flaggedrevs.sql.gz.txt2021-12-01 17:50 77
[TXT]sha1sums-dewiki-20211201-flaggedrevs_promote.sql.gz.txt2021-12-01 17:51 85
[TXT]sha1sums-dewiki-20211201-flaggedrevs_statistics.sql.gz.txt2021-12-01 17:52 88
[TXT]sha1sums-dewiki-20211201-flaggedrevs_tracking.sql.gz.txt2021-12-01 17:52 86
[TXT]sha1sums-dewiki-20211201-flaggedtemplates.sql.gz.txt2021-12-01 18:19 82
[TXT]sha1sums-dewiki-20211201-geo_tags.sql.gz.txt2021-12-01 17:42 74
[TXT]sha1sums-dewiki-20211201-image.sql.gz.txt2021-12-01 17:22 71
[TXT]sha1sums-dewiki-20211201-imagelinks.sql.gz.txt2021-12-01 17:31 76
[TXT]sha1sums-dewiki-20211201-iwlinks.sql.gz.txt2021-12-01 17:42 73
[TXT]sha1sums-dewiki-20211201-langlinks.sql.gz.txt2021-12-01 17:38 75
[TXT]sha1sums-dewiki-20211201-page.sql.gz.txt2021-12-01 17:40 70
[TXT]sha1sums-dewiki-20211201-page_props.sql.gz.txt2021-12-01 17:41 76
[TXT]sha1sums-dewiki-20211201-page_restrictions.sql.gz.txt2021-12-01 17:40 83
[TXT]sha1sums-dewiki-20211201-pagelinks.sql.gz.txt2021-12-01 17:28 75
[TXT]sha1sums-dewiki-20211201-pages-articles-multistream-index.txt.bz2.txt2021-12-02 03:46 99
[TXT]sha1sums-dewiki-20211201-pages-articles-multistream-index1.txt-p1p297012.bz2.txt2021-12-02 03:29 110
[TXT]sha1sums-dewiki-20211201-pages-articles-multistream-index2.txt-p297013p1262093.bz2.txt2021-12-02 03:30 116
[TXT]sha1sums-dewiki-20211201-pages-articles-multistream-index3.txt-p1262094p2762093.bz2.txt2021-12-02 03:30 117
[TXT]sha1sums-dewiki-20211201-pages-articles-multistream-index3.txt-p2762094p3376257.bz2.txt2021-12-02 03:30 117
[TXT]sha1sums-dewiki-20211201-pages-articles-multistream-index4.txt-p3376258p4876257.bz2.txt2021-12-02 03:31 117
[TXT]sha1sums-dewiki-20211201-pages-articles-multistream-index4.txt-p4876258p6115464.bz2.txt2021-12-02 03:31 117
[TXT]sha1sums-dewiki-20211201-pages-articles-multistream-index5.txt-p6115465p7615464.bz2.txt2021-12-02 03:32 117
[TXT]sha1sums-dewiki-20211201-pages-articles-multistream-index5.txt-p7615465p9115464.bz2.txt2021-12-02 03:33 117
[TXT]sha1sums-dewiki-20211201-pages-articles-multistream-index5.txt-p9115465p9261244.bz2.txt2021-12-02 03:33 117
[TXT]sha1sums-dewiki-20211201-pages-articles-multistream-index6.txt-p9261245p10761244.bz2.txt2021-12-02 03:34 118
[TXT]sha1sums-dewiki-20211201-pages-articles-multistream-index6.txt-p10761245p12018575.bz2.txt2021-12-02 03:35 119
[TXT]sha1sums-dewiki-20211201-pages-articles-multistream.xml.bz2.txt2021-12-02 03:46 93
[TXT]sha1sums-dewiki-20211201-pages-articles-multistream1.xml-p1p297012.bz2.txt2021-12-02 03:29 104
[TXT]sha1sums-dewiki-20211201-pages-articles-multistream2.xml-p297013p1262093.bz2.txt2021-12-02 03:30 110
[TXT]sha1sums-dewiki-20211201-pages-articles-multistream3.xml-p1262094p2762093.bz2.txt2021-12-02 03:30 111
[TXT]sha1sums-dewiki-20211201-pages-articles-multistream3.xml-p2762094p3376257.bz2.txt2021-12-02 03:30 111
[TXT]sha1sums-dewiki-20211201-pages-articles-multistream4.xml-p3376258p4876257.bz2.txt2021-12-02 03:31 111
[TXT]sha1sums-dewiki-20211201-pages-articles-multistream4.xml-p4876258p6115464.bz2.txt2021-12-02 03:31 111
[TXT]sha1sums-dewiki-20211201-pages-articles-multistream5.xml-p6115465p7615464.bz2.txt2021-12-02 03:32 111
[TXT]sha1sums-dewiki-20211201-pages-articles-multistream5.xml-p7615465p9115464.bz2.txt2021-12-02 03:33 111
[TXT]sha1sums-dewiki-20211201-pages-articles-multistream5.xml-p9115465p9261244.bz2.txt2021-12-02 03:33 111
[TXT]sha1sums-dewiki-20211201-pages-articles-multistream6.xml-p9261245p10761244.bz2.txt2021-12-02 03:34 112
[TXT]sha1sums-dewiki-20211201-pages-articles-multistream6.xml-p10761245p12018575.bz2.txt2021-12-02 03:35 113
[TXT]sha1sums-dewiki-20211201-pages-articles.xml.bz2.txt2021-12-02 00:17 81
[TXT]sha1sums-dewiki-20211201-pages-articles1.xml-p1p297012.bz2.txt2021-12-01 23:43 92
[TXT]sha1sums-dewiki-20211201-pages-articles2.xml-p297013p1262093.bz2.txt2021-12-01 23:43 98
[TXT]sha1sums-dewiki-20211201-pages-articles3.xml-p1262094p2762093.bz2.txt2021-12-01 23:44 99
[TXT]sha1sums-dewiki-20211201-pages-articles3.xml-p2762094p3376257.bz2.txt2021-12-01 23:44 99
[TXT]sha1sums-dewiki-20211201-pages-articles4.xml-p3376258p4876257.bz2.txt2021-12-01 23:44 99
[TXT]sha1sums-dewiki-20211201-pages-articles4.xml-p4876258p6115464.bz2.txt2021-12-01 23:44 99
[TXT]sha1sums-dewiki-20211201-pages-articles5.xml-p6115465p7615464.bz2.txt2021-12-01 23:44 99
[TXT]sha1sums-dewiki-20211201-pages-articles5.xml-p7615465p9115464.bz2.txt2021-12-01 23:45 99
[TXT]sha1sums-dewiki-20211201-pages-articles5.xml-p9115465p9261244.bz2.txt2021-12-01 23:45 99
[TXT]sha1sums-dewiki-20211201-pages-articles6.xml-p9261245p10761244.bz2.txt2021-12-01 23:45 100
[TXT]sha1sums-dewiki-20211201-pages-articles6.xml-p10761245p12018575.bz2.txt2021-12-01 23:46 101
[TXT]sha1sums-dewiki-20211201-pages-logging.xml.gz.txt2021-12-02 23:09 79
[TXT]sha1sums-dewiki-20211201-pages-logging1.xml.gz.txt2021-12-02 23:08 80
[TXT]sha1sums-dewiki-20211201-pages-logging2.xml.gz.txt2021-12-02 23:08 80
[TXT]sha1sums-dewiki-20211201-pages-logging3.xml.gz.txt2021-12-02 23:08 80
[TXT]sha1sums-dewiki-20211201-pages-logging4.xml.gz.txt2021-12-02 23:08 80
[TXT]sha1sums-dewiki-20211201-pages-logging5.xml.gz.txt2021-12-02 23:08 80
[TXT]sha1sums-dewiki-20211201-pages-logging6.xml.gz.txt2021-12-02 23:08 80
[TXT]sha1sums-dewiki-20211201-pages-meta-current.xml.bz2.txt2021-12-02 10:51 85
[TXT]sha1sums-dewiki-20211201-pages-meta-current1.xml-p1p297012.bz2.txt2021-12-02 09:50 96
[TXT]sha1sums-dewiki-20211201-pages-meta-current2.xml-p297013p1262093.bz2.txt2021-12-02 09:51 102
[TXT]sha1sums-dewiki-20211201-pages-meta-current3.xml-p1262094p2762093.bz2.txt2021-12-02 09:52 103
[TXT]sha1sums-dewiki-20211201-pages-meta-current3.xml-p2762094p3376257.bz2.txt2021-12-02 09:52 103
[TXT]sha1sums-dewiki-20211201-pages-meta-current4.xml-p3376258p4876257.bz2.txt2021-12-02 09:53 103
[TXT]sha1sums-dewiki-20211201-pages-meta-current4.xml-p4876258p6115464.bz2.txt2021-12-02 09:53 103
[TXT]sha1sums-dewiki-20211201-pages-meta-current5.xml-p6115465p7615464.bz2.txt2021-12-02 09:54 103
[TXT]sha1sums-dewiki-20211201-pages-meta-current5.xml-p7615465p9115464.bz2.txt2021-12-02 09:54 103
[TXT]sha1sums-dewiki-20211201-pages-meta-current5.xml-p9115465p9261244.bz2.txt2021-12-02 09:54 103
[TXT]sha1sums-dewiki-20211201-pages-meta-current6.xml-p9261245p10761244.bz2.txt2021-12-02 09:55 104
[TXT]sha1sums-dewiki-20211201-pages-meta-current6.xml-p10761245p12018588.bz2.txt2021-12-02 09:56 105
[TXT]sha1sums-dewiki-20211201-pages-meta-history1.xml-p1p1598.7z.txt2021-12-04 11:14 93
[TXT]sha1sums-dewiki-20211201-pages-meta-history1.xml-p1p1598.bz2.txt2021-12-03 23:20 94
[TXT]sha1sums-dewiki-20211201-pages-meta-history1.xml-p1599p3226.7z.txt2021-12-04 11:14 96
[TXT]sha1sums-dewiki-20211201-pages-meta-history1.xml-p1599p3226.bz2.txt2021-12-03 23:21 97
[TXT]sha1sums-dewiki-20211201-pages-meta-history1.xml-p3227p5136.7z.txt2021-12-04 11:14 96
[TXT]sha1sums-dewiki-20211201-pages-meta-history1.xml-p3227p5136.bz2.txt2021-12-03 23:22 97
[TXT]sha1sums-dewiki-20211201-pages-meta-history1.xml-p5137p6175.7z.txt2021-12-04 11:14 96
[TXT]sha1sums-dewiki-20211201-pages-meta-history1.xml-p5137p6175.bz2.txt2021-12-03 23:22 97
[TXT]sha1sums-dewiki-20211201-pages-meta-history1.xml-p6176p9109.7z.txt2021-12-04 11:15 96
[TXT]sha1sums-dewiki-20211201-pages-meta-history1.xml-p6176p9109.bz2.txt2021-12-03 23:23 97
[TXT]sha1sums-dewiki-20211201-pages-meta-history1.xml-p9110p11891.7z.txt2021-12-04 11:15 97
[TXT]sha1sums-dewiki-20211201-pages-meta-history1.xml-p9110p11891.bz2.txt2021-12-03 23:24 98
[TXT]sha1sums-dewiki-20211201-pages-meta-history1.xml-p11892p15048.7z.txt2021-12-04 11:15 98
[TXT]sha1sums-dewiki-20211201-pages-meta-history1.xml-p11892p15048.bz2.txt2021-12-03 23:25 99
[TXT]sha1sums-dewiki-20211201-pages-meta-history1.xml-p15049p17986.7z.txt2021-12-04 11:15 98
[TXT]sha1sums-dewiki-20211201-pages-meta-history1.xml-p15049p17986.bz2.txt2021-12-03 23:26 99
[TXT]sha1sums-dewiki-20211201-pages-meta-history1.xml-p17987p22120.7z.txt2021-12-04 11:15 98
[TXT]sha1sums-dewiki-20211201-pages-meta-history1.xml-p17987p22120.bz2.txt2021-12-03 23:27 99
[TXT]sha1sums-dewiki-20211201-pages-meta-history1.xml-p22121p28991.7z.txt2021-12-04 11:15 98
[TXT]sha1sums-dewiki-20211201-pages-meta-history1.xml-p22121p28991.bz2.txt2021-12-03 23:28 99
[TXT]sha1sums-dewiki-20211201-pages-meta-history1.xml-p28992p33794.7z.txt2021-12-04 11:15 98
[TXT]sha1sums-dewiki-20211201-pages-meta-history1.xml-p28992p33794.bz2.txt2021-12-03 23:29 99
[TXT]sha1sums-dewiki-20211201-pages-meta-history1.xml-p33795p41625.7z.txt2021-12-04 11:15 98
[TXT]sha1sums-dewiki-20211201-pages-meta-history1.xml-p33795p41625.bz2.txt2021-12-03 23:30 99
[TXT]sha1sums-dewiki-20211201-pages-meta-history1.xml-p41626p49817.7z.txt2021-12-04 11:15 98
[TXT]sha1sums-dewiki-20211201-pages-meta-history1.xml-p41626p49817.bz2.txt2021-12-03 23:31 99
[TXT]sha1sums-dewiki-20211201-pages-meta-history1.xml-p49818p57509.7z.txt2021-12-04 11:15 98
[TXT]sha1sums-dewiki-20211201-pages-meta-history1.xml-p49818p57509.bz2.txt2021-12-03 23:33 99
[TXT]sha1sums-dewiki-20211201-pages-meta-history1.xml-p57510p69033.7z.txt2021-12-04 11:16 98
[TXT]sha1sums-dewiki-20211201-pages-meta-history1.xml-p57510p69033.bz2.txt2021-12-03 23:34 99
[TXT]sha1sums-dewiki-20211201-pages-meta-history1.xml-p69034p77682.7z.txt2021-12-04 11:16 98
[TXT]sha1sums-dewiki-20211201-pages-meta-history1.xml-p69034p77682.bz2.txt2021-12-03 23:35 99
[TXT]sha1sums-dewiki-20211201-pages-meta-history1.xml-p77683p90942.7z.txt2021-12-04 11:16 98
[TXT]sha1sums-dewiki-20211201-pages-meta-history1.xml-p77683p90942.bz2.txt2021-12-03 23:36 99
[TXT]sha1sums-dewiki-20211201-pages-meta-history1.xml-p90943p103232.7z.txt2021-12-04 11:16 99
[TXT]sha1sums-dewiki-20211201-pages-meta-history1.xml-p90943p103232.bz2.txt2021-12-03 23:37 100
[TXT]sha1sums-dewiki-20211201-pages-meta-history1.xml-p103233p118230.7z.txt2021-12-04 11:16 100
[TXT]sha1sums-dewiki-20211201-pages-meta-history1.xml-p103233p118230.bz2.txt2021-12-03 23:37 101
[TXT]sha1sums-dewiki-20211201-pages-meta-history1.xml-p118231p132687.7z.txt2021-12-04 11:16 100
[TXT]sha1sums-dewiki-20211201-pages-meta-history1.xml-p118231p132687.bz2.txt2021-12-03 23:38 101
[TXT]sha1sums-dewiki-20211201-pages-meta-history1.xml-p132688p147973.7z.txt2021-12-04 11:16 100
[TXT]sha1sums-dewiki-20211201-pages-meta-history1.xml-p132688p147973.bz2.txt2021-12-03 23:39 101
[TXT]sha1sums-dewiki-20211201-pages-meta-history1.xml-p147974p164913.7z.txt2021-12-04 11:16 100
[TXT]sha1sums-dewiki-20211201-pages-meta-history1.xml-p147974p164913.bz2.txt2021-12-03 23:39 101
[TXT]sha1sums-dewiki-20211201-pages-meta-history1.xml-p164914p182563.7z.txt2021-12-04 11:17 100
[TXT]sha1sums-dewiki-20211201-pages-meta-history1.xml-p164914p182563.bz2.txt2021-12-03 23:40 101
[TXT]sha1sums-dewiki-20211201-pages-meta-history1.xml-p182564p202493.7z.txt2021-12-04 11:17 100
[TXT]sha1sums-dewiki-20211201-pages-meta-history1.xml-p182564p202493.bz2.txt2021-12-03 23:41 101
[TXT]sha1sums-dewiki-20211201-pages-meta-history1.xml-p202494p223393.7z.txt2021-12-04 11:17 100
[TXT]sha1sums-dewiki-20211201-pages-meta-history1.xml-p202494p223393.bz2.txt2021-12-03 23:41 101
[TXT]sha1sums-dewiki-20211201-pages-meta-history1.xml-p223394p247206.7z.txt2021-12-04 11:17 100
[TXT]sha1sums-dewiki-20211201-pages-meta-history1.xml-p223394p247206.bz2.txt2021-12-03 23:42 101
[TXT]sha1sums-dewiki-20211201-pages-meta-history1.xml-p247207p270405.7z.txt2021-12-04 11:17 100
[TXT]sha1sums-dewiki-20211201-pages-meta-history1.xml-p247207p270405.bz2.txt2021-12-03 23:43 101
[TXT]sha1sums-dewiki-20211201-pages-meta-history1.xml-p270406p294004.7z.txt2021-12-04 11:17 100
[TXT]sha1sums-dewiki-20211201-pages-meta-history1.xml-p270406p294004.bz2.txt2021-12-03 23:43 101
[TXT]sha1sums-dewiki-20211201-pages-meta-history1.xml-p294005p297012.7z.txt2021-12-04 11:17 100
[TXT]sha1sums-dewiki-20211201-pages-meta-history1.xml-p294005p297012.bz2.txt2021-12-03 23:43 101
[TXT]sha1sums-dewiki-20211201-pages-meta-history2.xml-p297013p323346.7z.txt2021-12-04 11:17 100
[TXT]sha1sums-dewiki-20211201-pages-meta-history2.xml-p297013p323346.bz2.txt2021-12-03 23:44 101
[TXT]sha1sums-dewiki-20211201-pages-meta-history2.xml-p323347p350360.7z.txt2021-12-04 11:17 100
[TXT]sha1sums-dewiki-20211201-pages-meta-history2.xml-p323347p350360.bz2.txt2021-12-03 23:45 101
[TXT]sha1sums-dewiki-20211201-pages-meta-history2.xml-p350361p379968.7z.txt2021-12-04 11:18 100
[TXT]sha1sums-dewiki-20211201-pages-meta-history2.xml-p350361p379968.bz2.txt2021-12-03 23:45 101
[TXT]sha1sums-dewiki-20211201-pages-meta-history2.xml-p379969p411835.7z.txt2021-12-04 11:18 100
[TXT]sha1sums-dewiki-20211201-pages-meta-history2.xml-p379969p411835.bz2.txt2021-12-03 23:46 101
[TXT]sha1sums-dewiki-20211201-pages-meta-history2.xml-p411836p444478.7z.txt2021-12-04 11:18 100
[TXT]sha1sums-dewiki-20211201-pages-meta-history2.xml-p411836p444478.bz2.txt2021-12-03 23:46 101
[TXT]sha1sums-dewiki-20211201-pages-meta-history2.xml-p444479p473698.7z.txt2021-12-04 11:18 100
[TXT]sha1sums-dewiki-20211201-pages-meta-history2.xml-p444479p473698.bz2.txt2021-12-03 23:47 101
[TXT]sha1sums-dewiki-20211201-pages-meta-history2.xml-p473699p502797.7z.txt2021-12-04 11:18 100
[TXT]sha1sums-dewiki-20211201-pages-meta-history2.xml-p473699p502797.bz2.txt2021-12-03 23:48 101
[TXT]sha1sums-dewiki-20211201-pages-meta-history2.xml-p502798p542149.7z.txt2021-12-04 11:18 100
[TXT]sha1sums-dewiki-20211201-pages-meta-history2.xml-p502798p542149.bz2.txt2021-12-03 23:48 101
[TXT]sha1sums-dewiki-20211201-pages-meta-history2.xml-p542150p582400.7z.txt2021-12-04 11:18 100
[TXT]sha1sums-dewiki-20211201-pages-meta-history2.xml-p542150p582400.bz2.txt2021-12-03 23:49 101
[TXT]sha1sums-dewiki-20211201-pages-meta-history2.xml-p582401p620123.7z.txt2021-12-04 11:18 100
[TXT]sha1sums-dewiki-20211201-pages-meta-history2.xml-p582401p620123.bz2.txt2021-12-03 23:50 101
[TXT]sha1sums-dewiki-20211201-pages-meta-history2.xml-p620124p663792.7z.txt2021-12-04 11:19 100
[TXT]sha1sums-dewiki-20211201-pages-meta-history2.xml-p620124p663792.bz2.txt2021-12-03 23:51 101
[TXT]sha1sums-dewiki-20211201-pages-meta-history2.xml-p663793p697767.7z.txt2021-12-04 11:19 100
[TXT]sha1sums-dewiki-20211201-pages-meta-history2.xml-p663793p697767.bz2.txt2021-12-03 23:52 101
[TXT]sha1sums-dewiki-20211201-pages-meta-history2.xml-p697768p733227.7z.txt2021-12-04 11:19 100
[TXT]sha1sums-dewiki-20211201-pages-meta-history2.xml-p697768p733227.bz2.txt2021-12-03 23:54 101
[TXT]sha1sums-dewiki-20211201-pages-meta-history2.xml-p733228p774781.7z.txt2021-12-04 11:19 100
[TXT]sha1sums-dewiki-20211201-pages-meta-history2.xml-p733228p774781.bz2.txt2021-12-03 23:56 101
[TXT]sha1sums-dewiki-20211201-pages-meta-history2.xml-p774782p817956.7z.txt2021-12-04 11:19 100
[TXT]sha1sums-dewiki-20211201-pages-meta-history2.xml-p774782p817956.bz2.txt2021-12-03 23:57 101
[TXT]sha1sums-dewiki-20211201-pages-meta-history2.xml-p817957p859002.7z.txt2021-12-04 11:19 100
[TXT]sha1sums-dewiki-20211201-pages-meta-history2.xml-p817957p859002.bz2.txt2021-12-03 23:59 101
[TXT]sha1sums-dewiki-20211201-pages-meta-history2.xml-p859003p904851.7z.txt2021-12-04 11:19 100
[TXT]sha1sums-dewiki-20211201-pages-meta-history2.xml-p859003p904851.bz2.txt2021-12-04 00:01 101
[TXT]sha1sums-dewiki-20211201-pages-meta-history2.xml-p904852p957586.7z.txt2021-12-04 11:20 100
[TXT]sha1sums-dewiki-20211201-pages-meta-history2.xml-p904852p957586.bz2.txt2021-12-04 00:02 101
[TXT]sha1sums-dewiki-20211201-pages-meta-history2.xml-p957587p1004545.7z.txt2021-12-04 11:20 101
[TXT]sha1sums-dewiki-20211201-pages-meta-history2.xml-p957587p1004545.bz2.txt2021-12-04 00:03 102
[TXT]sha1sums-dewiki-20211201-pages-meta-history2.xml-p1004546p1054543.7z.txt2021-12-04 11:20 102
[TXT]sha1sums-dewiki-20211201-pages-meta-history2.xml-p1004546p1054543.bz2.txt2021-12-04 00:04 103
[TXT]sha1sums-dewiki-20211201-pages-meta-history2.xml-p1054544p1116046.7z.txt2021-12-04 11:20 102
[TXT]sha1sums-dewiki-20211201-pages-meta-history2.xml-p1054544p1116046.bz2.txt2021-12-04 00:05 103
[TXT]sha1sums-dewiki-20211201-pages-meta-history2.xml-p1116047p1171919.7z.txt2021-12-04 11:20 102
[TXT]sha1sums-dewiki-20211201-pages-meta-history2.xml-p1116047p1171919.bz2.txt2021-12-04 00:06 103
[TXT]sha1sums-dewiki-20211201-pages-meta-history2.xml-p1171920p1230276.7z.txt2021-12-04 11:20 102
[TXT]sha1sums-dewiki-20211201-pages-meta-history2.xml-p1171920p1230276.bz2.txt2021-12-04 00:08 103
[TXT]sha1sums-dewiki-20211201-pages-meta-history2.xml-p1230277p1262093.7z.txt2021-12-04 11:20 102
[TXT]sha1sums-dewiki-20211201-pages-meta-history2.xml-p1230277p1262093.bz2.txt2021-12-04 00:08 103
[TXT]sha1sums-dewiki-20211201-pages-meta-history3.xml-p1262094p1321768.7z.txt2021-12-04 11:20 102
[TXT]sha1sums-dewiki-20211201-pages-meta-history3.xml-p1262094p1321768.bz2.txt2021-12-04 00:09 103
[TXT]sha1sums-dewiki-20211201-pages-meta-history3.xml-p1321769p1383471.7z.txt2021-12-04 11:21 102
[TXT]sha1sums-dewiki-20211201-pages-meta-history3.xml-p1321769p1383471.bz2.txt2021-12-04 00:10 103
[TXT]sha1sums-dewiki-20211201-pages-meta-history3.xml-p1383472p1445886.7z.txt2021-12-04 11:21 102
[TXT]sha1sums-dewiki-20211201-pages-meta-history3.xml-p1383472p1445886.bz2.txt2021-12-04 00:12 103
[TXT]sha1sums-dewiki-20211201-pages-meta-history3.xml-p1445887p1515865.7z.txt2021-12-04 11:21 102
[TXT]sha1sums-dewiki-20211201-pages-meta-history3.xml-p1445887p1515865.bz2.txt2021-12-04 00:13 103
[TXT]sha1sums-dewiki-20211201-pages-meta-history3.xml-p1515866p1587024.7z.txt2021-12-04 11:21 102
[TXT]sha1sums-dewiki-20211201-pages-meta-history3.xml-p1515866p1587024.bz2.txt2021-12-04 00:14 103
[TXT]sha1sums-dewiki-20211201-pages-meta-history3.xml-p1587025p1656122.7z.txt2021-12-04 11:21 102
[TXT]sha1sums-dewiki-20211201-pages-meta-history3.xml-p1587025p1656122.bz2.txt2021-12-04 00:16 103
[TXT]sha1sums-dewiki-20211201-pages-meta-history3.xml-p1656123p1724667.7z.txt2021-12-04 11:21 102
[TXT]sha1sums-dewiki-20211201-pages-meta-history3.xml-p1656123p1724667.bz2.txt2021-12-04 00:17 103
[TXT]sha1sums-dewiki-20211201-pages-meta-history3.xml-p1724668p1797111.7z.txt2021-12-04 11:22 102
[TXT]sha1sums-dewiki-20211201-pages-meta-history3.xml-p1724668p1797111.bz2.txt2021-12-04 00:18 103
[TXT]sha1sums-dewiki-20211201-pages-meta-history3.xml-p1797112p1874205.7z.txt2021-12-04 11:22 102
[TXT]sha1sums-dewiki-20211201-pages-meta-history3.xml-p1797112p1874205.bz2.txt2021-12-04 00:19 103
[TXT]sha1sums-dewiki-20211201-pages-meta-history3.xml-p1874206p1958743.7z.txt2021-12-04 11:22 102
[TXT]sha1sums-dewiki-20211201-pages-meta-history3.xml-p1874206p1958743.bz2.txt2021-12-04 00:21 103
[TXT]sha1sums-dewiki-20211201-pages-meta-history3.xml-p1958744p2069347.7z.txt2021-12-04 11:22 102
[TXT]sha1sums-dewiki-20211201-pages-meta-history3.xml-p1958744p2069347.bz2.txt2021-12-04 00:22 103
[TXT]sha1sums-dewiki-20211201-pages-meta-history3.xml-p2069348p2155603.7z.txt2021-12-04 11:22 102
[TXT]sha1sums-dewiki-20211201-pages-meta-history3.xml-p2069348p2155603.bz2.txt2021-12-04 00:23 103
[TXT]sha1sums-dewiki-20211201-pages-meta-history3.xml-p2155604p2256513.7z.txt2021-12-04 11:22 102
[TXT]sha1sums-dewiki-20211201-pages-meta-history3.xml-p2155604p2256513.bz2.txt2021-12-04 00:24 103
[TXT]sha1sums-dewiki-20211201-pages-meta-history3.xml-p2256514p2359696.7z.txt2021-12-04 11:22 102
[TXT]sha1sums-dewiki-20211201-pages-meta-history3.xml-p2256514p2359696.bz2.txt2021-12-04 00:25 103
[TXT]sha1sums-dewiki-20211201-pages-meta-history3.xml-p2359697p2478689.7z.txt2021-12-04 11:23 102
[TXT]sha1sums-dewiki-20211201-pages-meta-history3.xml-p2359697p2478689.bz2.txt2021-12-04 00:26 103
[TXT]sha1sums-dewiki-20211201-pages-meta-history3.xml-p2478690p2593579.7z.txt2021-12-04 11:23 102
[TXT]sha1sums-dewiki-20211201-pages-meta-history3.xml-p2478690p2593579.bz2.txt2021-12-04 00:28 103
[TXT]sha1sums-dewiki-20211201-pages-meta-history3.xml-p2593580p2691990.7z.txt2021-12-04 11:23 102
[TXT]sha1sums-dewiki-20211201-pages-meta-history3.xml-p2593580p2691990.bz2.txt2021-12-04 00:30 103
[TXT]sha1sums-dewiki-20211201-pages-meta-history3.xml-p2691991p2782090.7z.txt2021-12-04 11:23 102
[TXT]sha1sums-dewiki-20211201-pages-meta-history3.xml-p2691991p2782090.bz2.txt2021-12-04 00:32 103
[TXT]sha1sums-dewiki-20211201-pages-meta-history3.xml-p2782091p2873810.7z.txt2021-12-04 11:23 102
[TXT]sha1sums-dewiki-20211201-pages-meta-history3.xml-p2782091p2873810.bz2.txt2021-12-04 00:33 103
[TXT]sha1sums-dewiki-20211201-pages-meta-history3.xml-p2873811p2980259.7z.txt2021-12-04 11:23 102
[TXT]sha1sums-dewiki-20211201-pages-meta-history3.xml-p2873811p2980259.bz2.txt2021-12-04 00:35 103
[TXT]sha1sums-dewiki-20211201-pages-meta-history3.xml-p2980260p3081763.7z.txt2021-12-04 11:24 102
[TXT]sha1sums-dewiki-20211201-pages-meta-history3.xml-p2980260p3081763.bz2.txt2021-12-04 00:36 103
[TXT]sha1sums-dewiki-20211201-pages-meta-history3.xml-p3081764p3173455.7z.txt2021-12-04 11:24 102
[TXT]sha1sums-dewiki-20211201-pages-meta-history3.xml-p3081764p3173455.bz2.txt2021-12-04 00:38 103
[TXT]sha1sums-dewiki-20211201-pages-meta-history3.xml-p3173456p3295635.7z.txt2021-12-04 11:24 102
[TXT]sha1sums-dewiki-20211201-pages-meta-history3.xml-p3173456p3295635.bz2.txt2021-12-04 00:39 103
[TXT]sha1sums-dewiki-20211201-pages-meta-history3.xml-p3295636p3376257.7z.txt2021-12-04 11:24 102
[TXT]sha1sums-dewiki-20211201-pages-meta-history3.xml-p3295636p3376257.bz2.txt2021-12-04 00:39 103
[TXT]sha1sums-dewiki-20211201-pages-meta-history4.xml-p3376258p3477755.7z.txt2021-12-04 11:24 102
[TXT]sha1sums-dewiki-20211201-pages-meta-history4.xml-p3376258p3477755.bz2.txt2021-12-04 00:41 103
[TXT]sha1sums-dewiki-20211201-pages-meta-history4.xml-p3477756p3591375.7z.txt2021-12-04 11:24 102
[TXT]sha1sums-dewiki-20211201-pages-meta-history4.xml-p3477756p3591375.bz2.txt2021-12-04 00:42 103
[TXT]sha1sums-dewiki-20211201-pages-meta-history4.xml-p3591376p3697549.7z.txt2021-12-04 11:24 102
[TXT]sha1sums-dewiki-20211201-pages-meta-history4.xml-p3591376p3697549.bz2.txt2021-12-04 00:43 103
[TXT]sha1sums-dewiki-20211201-pages-meta-history4.xml-p3697550p3801048.7z.txt2021-12-04 11:25 102
[TXT]sha1sums-dewiki-20211201-pages-meta-history4.xml-p3697550p3801048.bz2.txt2021-12-04 00:44 103
[TXT]sha1sums-dewiki-20211201-pages-meta-history4.xml-p3801049p3906041.7z.txt2021-12-04 11:25 102
[TXT]sha1sums-dewiki-20211201-pages-meta-history4.xml-p3801049p3906041.bz2.txt2021-12-04 00:45 103
[TXT]sha1sums-dewiki-20211201-pages-meta-history4.xml-p3906042p4030877.7z.txt2021-12-04 11:25 102
[TXT]sha1sums-dewiki-20211201-pages-meta-history4.xml-p3906042p4030877.bz2.txt2021-12-04 00:46 103
[TXT]sha1sums-dewiki-20211201-pages-meta-history4.xml-p4030878p4133916.7z.txt2021-12-04 11:25 102
[TXT]sha1sums-dewiki-20211201-pages-meta-history4.xml-p4030878p4133916.bz2.txt2021-12-04 00:47 103
[TXT]sha1sums-dewiki-20211201-pages-meta-history4.xml-p4133917p4249445.7z.txt2021-12-04 11:25 102
[TXT]sha1sums-dewiki-20211201-pages-meta-history4.xml-p4133917p4249445.bz2.txt2021-12-04 00:49 103
[TXT]sha1sums-dewiki-20211201-pages-meta-history4.xml-p4249446p4329642.7z.txt2021-12-04 11:25 102
[TXT]sha1sums-dewiki-20211201-pages-meta-history4.xml-p4249446p4329642.bz2.txt2021-12-04 00:50 103
[TXT]sha1sums-dewiki-20211201-pages-meta-history4.xml-p4329643p4366801.7z.txt2021-12-04 11:26 102
[TXT]sha1sums-dewiki-20211201-pages-meta-history4.xml-p4329643p4366801.bz2.txt2021-12-04 00:53 103
[TXT]sha1sums-dewiki-20211201-pages-meta-history4.xml-p4366802p4468278.7z.txt2021-12-04 11:26 102
[TXT]sha1sums-dewiki-20211201-pages-meta-history4.xml-p4366802p4468278.bz2.txt2021-12-04 00:55 103
[TXT]sha1sums-dewiki-20211201-pages-meta-history4.xml-p4468279p4551155.7z.txt2021-12-04 11:26 102
[TXT]sha1sums-dewiki-20211201-pages-meta-history4.xml-p4468279p4551155.bz2.txt2021-12-04 00:57 103
[TXT]sha1sums-dewiki-20211201-pages-meta-history4.xml-p4551156p4662910.7z.txt2021-12-04 11:26 102
[TXT]sha1sums-dewiki-20211201-pages-meta-history4.xml-p4551156p4662910.bz2.txt2021-12-04 00:58 103
[TXT]sha1sums-dewiki-20211201-pages-meta-history4.xml-p4662911p4792154.7z.txt2021-12-04 11:26 102
[TXT]sha1sums-dewiki-20211201-pages-meta-history4.xml-p4662911p4792154.bz2.txt2021-12-04 01:00 103
[TXT]sha1sums-dewiki-20211201-pages-meta-history4.xml-p4792155p4898825.7z.txt2021-12-04 11:27 102
[TXT]sha1sums-dewiki-20211201-pages-meta-history4.xml-p4792155p4898825.bz2.txt2021-12-04 01:03 103
[TXT]sha1sums-dewiki-20211201-pages-meta-history4.xml-p4898826p5003717.7z.txt2021-12-04 11:27 102
[TXT]sha1sums-dewiki-20211201-pages-meta-history4.xml-p4898826p5003717.bz2.txt2021-12-04 01:05 103
[TXT]sha1sums-dewiki-20211201-pages-meta-history4.xml-p5003718p5100284.7z.txt2021-12-04 11:27 102
[TXT]sha1sums-dewiki-20211201-pages-meta-history4.xml-p5003718p5100284.bz2.txt2021-12-04 01:07 103
[TXT]sha1sums-dewiki-20211201-pages-meta-history4.xml-p5100285p5235816.7z.txt2021-12-04 11:27 102
[TXT]sha1sums-dewiki-20211201-pages-meta-history4.xml-p5100285p5235816.bz2.txt2021-12-04 01:08 103
[TXT]sha1sums-dewiki-20211201-pages-meta-history4.xml-p5235817p5342247.7z.txt2021-12-04 11:27 102
[TXT]sha1sums-dewiki-20211201-pages-meta-history4.xml-p5235817p5342247.bz2.txt2021-12-04 01:09 103
[TXT]sha1sums-dewiki-20211201-pages-meta-history4.xml-p5342248p5460858.7z.txt2021-12-04 11:27 102
[TXT]sha1sums-dewiki-20211201-pages-meta-history4.xml-p5342248p5460858.bz2.txt2021-12-04 01:11 103
[TXT]sha1sums-dewiki-20211201-pages-meta-history4.xml-p5460859p5568700.7z.txt2021-12-04 11:28 102
[TXT]sha1sums-dewiki-20211201-pages-meta-history4.xml-p5460859p5568700.bz2.txt2021-12-04 01:12 103
[TXT]sha1sums-dewiki-20211201-pages-meta-history4.xml-p5568701p5691976.7z.txt2021-12-04 11:28 102
[TXT]sha1sums-dewiki-20211201-pages-meta-history4.xml-p5568701p5691976.bz2.txt2021-12-04 01:14 103
[TXT]sha1sums-dewiki-20211201-pages-meta-history4.xml-p5691977p5826120.7z.txt2021-12-04 11:28 102
[TXT]sha1sums-dewiki-20211201-pages-meta-history4.xml-p5691977p5826120.bz2.txt2021-12-04 01:15 103
[TXT]sha1sums-dewiki-20211201-pages-meta-history4.xml-p5826121p5924203.7z.txt2021-12-04 11:28 102
[TXT]sha1sums-dewiki-20211201-pages-meta-history4.xml-p5826121p5924203.bz2.txt2021-12-04 01:16 103
[TXT]sha1sums-dewiki-20211201-pages-meta-history4.xml-p5924204p6042723.7z.txt2021-12-04 11:28 102
[TXT]sha1sums-dewiki-20211201-pages-meta-history4.xml-p5924204p6042723.bz2.txt2021-12-04 01:18 103
[TXT]sha1sums-dewiki-20211201-pages-meta-history4.xml-p6042724p6115464.7z.txt2021-12-04 11:28 102
[TXT]sha1sums-dewiki-20211201-pages-meta-history4.xml-p6042724p6115464.bz2.txt2021-12-04 01:20 103
[TXT]sha1sums-dewiki-20211201-pages-meta-history5.xml-p6115465p6240991.7z.txt2021-12-04 11:29 102
[TXT]sha1sums-dewiki-20211201-pages-meta-history5.xml-p6115465p6240991.bz2.txt2021-12-04 01:22 103
[TXT]sha1sums-dewiki-20211201-pages-meta-history5.xml-p6240992p6332298.7z.txt2021-12-04 11:29 102
[TXT]sha1sums-dewiki-20211201-pages-meta-history5.xml-p6240992p6332298.bz2.txt2021-12-04 01:25 103
[TXT]sha1sums-dewiki-20211201-pages-meta-history5.xml-p6332299p6424537.7z.txt2021-12-04 11:29 102
[TXT]sha1sums-dewiki-20211201-pages-meta-history5.xml-p6332299p6424537.bz2.txt2021-12-04 01:27 103
[TXT]sha1sums-dewiki-20211201-pages-meta-history5.xml-p6424538p6516772.7z.txt2021-12-04 11:29 102
[TXT]sha1sums-dewiki-20211201-pages-meta-history5.xml-p6424538p6516772.bz2.txt2021-12-04 01:29 103
[TXT]sha1sums-dewiki-20211201-pages-meta-history5.xml-p6516773p6529937.7z.txt2021-12-04 11:29 102
[TXT]sha1sums-dewiki-20211201-pages-meta-history5.xml-p6516773p6529937.bz2.txt2021-12-04 01:34 103
[TXT]sha1sums-dewiki-20211201-pages-meta-history5.xml-p6529938p6612046.7z.txt2021-12-04 11:29 102
[TXT]sha1sums-dewiki-20211201-pages-meta-history5.xml-p6529938p6612046.bz2.txt2021-12-04 01:38 103
[TXT]sha1sums-dewiki-20211201-pages-meta-history5.xml-p6612047p6678845.7z.txt2021-12-04 11:30 102
[TXT]sha1sums-dewiki-20211201-pages-meta-history5.xml-p6612047p6678845.bz2.txt2021-12-04 01:45 103
[TXT]sha1sums-dewiki-20211201-pages-meta-history5.xml-p6678846p6745150.7z.txt2021-12-04 11:30 102
[TXT]sha1sums-dewiki-20211201-pages-meta-history5.xml-p6678846p6745150.bz2.txt2021-12-04 01:48 103
[TXT]sha1sums-dewiki-20211201-pages-meta-history5.xml-p6745151p6858587.7z.txt2021-12-04 11:30 102
[TXT]sha1sums-dewiki-20211201-pages-meta-history5.xml-p6745151p6858587.bz2.txt2021-12-04 01:52 103
[TXT]sha1sums-dewiki-20211201-pages-meta-history5.xml-p6858588p6974525.7z.txt2021-12-04 11:30 102
[TXT]sha1sums-dewiki-20211201-pages-meta-history5.xml-p6858588p6974525.bz2.txt2021-12-04 01:55 103
[TXT]sha1sums-dewiki-20211201-pages-meta-history5.xml-p6974526p7041465.7z.txt2021-12-04 11:30 102
[TXT]sha1sums-dewiki-20211201-pages-meta-history5.xml-p6974526p7041465.bz2.txt2021-12-04 01:58 103
[TXT]sha1sums-dewiki-20211201-pages-meta-history5.xml-p7041466p7076412.7z.txt2021-12-04 11:31 102
[TXT]sha1sums-dewiki-20211201-pages-meta-history5.xml-p7041466p7076412.bz2.txt2021-12-04 02:04 103
[TXT]sha1sums-dewiki-20211201-pages-meta-history5.xml-p7076413p7165975.7z.txt2021-12-04 11:31 102
[TXT]sha1sums-dewiki-20211201-pages-meta-history5.xml-p7076413p7165975.bz2.txt2021-12-04 02:05 103
[TXT]sha1sums-dewiki-20211201-pages-meta-history5.xml-p7165976p7376675.7z.txt2021-12-04 11:31 102
[TXT]sha1sums-dewiki-20211201-pages-meta-history5.xml-p7165976p7376675.bz2.txt2021-12-04 02:07 103
[TXT]sha1sums-dewiki-20211201-pages-meta-history5.xml-p7376676p7513293.7z.txt2021-12-04 11:31 102
[TXT]sha1sums-dewiki-20211201-pages-meta-history5.xml-p7376676p7513293.bz2.txt2021-12-04 02:08 103
[TXT]sha1sums-dewiki-20211201-pages-meta-history5.xml-p7513294p7637959.7z.txt2021-12-04 11:31 102
[TXT]sha1sums-dewiki-20211201-pages-meta-history5.xml-p7513294p7637959.bz2.txt2021-12-04 02:10 103
[TXT]sha1sums-dewiki-20211201-pages-meta-history5.xml-p7637960p7754916.7z.txt2021-12-04 11:32 102
[TXT]sha1sums-dewiki-20211201-pages-meta-history5.xml-p7637960p7754916.bz2.txt2021-12-04 02:12 103
[TXT]sha1sums-dewiki-20211201-pages-meta-history5.xml-p7754917p7883266.7z.txt2021-12-04 11:32 102
[TXT]sha1sums-dewiki-20211201-pages-meta-history5.xml-p7754917p7883266.bz2.txt2021-12-04 02:14 103
[TXT]sha1sums-dewiki-20211201-pages-meta-history5.xml-p7883267p8020452.7z.txt2021-12-04 11:32 102
[TXT]sha1sums-dewiki-20211201-pages-meta-history5.xml-p7883267p8020452.bz2.txt2021-12-04 02:15 103
[TXT]sha1sums-dewiki-20211201-pages-meta-history5.xml-p8020453p8131042.7z.txt2021-12-04 11:32 102
[TXT]sha1sums-dewiki-20211201-pages-meta-history5.xml-p8020453p8131042.bz2.txt2021-12-04 02:17 103
[TXT]sha1sums-dewiki-20211201-pages-meta-history5.xml-p8131043p8240286.7z.txt2021-12-04 11:32 102
[TXT]sha1sums-dewiki-20211201-pages-meta-history5.xml-p8131043p8240286.bz2.txt2021-12-04 02:18 103
[TXT]sha1sums-dewiki-20211201-pages-meta-history5.xml-p8240287p8378375.7z.txt2021-12-04 11:32 102
[TXT]sha1sums-dewiki-20211201-pages-meta-history5.xml-p8240287p8378375.bz2.txt2021-12-04 02:19 103
[TXT]sha1sums-dewiki-20211201-pages-meta-history5.xml-p8378376p8505543.7z.txt2021-12-04 11:33 102
[TXT]sha1sums-dewiki-20211201-pages-meta-history5.xml-p8378376p8505543.bz2.txt2021-12-04 02:21 103
[TXT]sha1sums-dewiki-20211201-pages-meta-history5.xml-p8505544p8637874.7z.txt2021-12-04 11:33 102
[TXT]sha1sums-dewiki-20211201-pages-meta-history5.xml-p8505544p8637874.bz2.txt2021-12-04 02:22 103
[TXT]sha1sums-dewiki-20211201-pages-meta-history5.xml-p8637875p8863015.7z.txt2021-12-04 11:33 102
[TXT]sha1sums-dewiki-20211201-pages-meta-history5.xml-p8637875p8863015.bz2.txt2021-12-04 02:22 103
[TXT]sha1sums-dewiki-20211201-pages-meta-history5.xml-p8863016p8972208.7z.txt2021-12-04 11:33 102
[TXT]sha1sums-dewiki-20211201-pages-meta-history5.xml-p8863016p8972208.bz2.txt2021-12-04 02:24 103
[TXT]sha1sums-dewiki-20211201-pages-meta-history5.xml-p8972209p9065062.7z.txt2021-12-04 11:33 102
[TXT]sha1sums-dewiki-20211201-pages-meta-history5.xml-p8972209p9065062.bz2.txt2021-12-04 02:25 103
[TXT]sha1sums-dewiki-20211201-pages-meta-history5.xml-p9065063p9082351.7z.txt2021-12-04 11:34 102
[TXT]sha1sums-dewiki-20211201-pages-meta-history5.xml-p9065063p9082351.bz2.txt2021-12-04 02:31 103
[TXT]sha1sums-dewiki-20211201-pages-meta-history5.xml-p9082352p9197169.7z.txt2021-12-04 11:34 102
[TXT]sha1sums-dewiki-20211201-pages-meta-history5.xml-p9082352p9197169.bz2.txt2021-12-04 02:34 103
[TXT]sha1sums-dewiki-20211201-pages-meta-history5.xml-p9197170p9261244.7z.txt2021-12-04 11:34 102
[TXT]sha1sums-dewiki-20211201-pages-meta-history5.xml-p9197170p9261244.bz2.txt2021-12-04 02:34 103
[TXT]sha1sums-dewiki-20211201-pages-meta-history6.xml-p9261245p9460135.7z.txt2021-12-04 11:34 102
[TXT]sha1sums-dewiki-20211201-pages-meta-history6.xml-p9261245p9460135.bz2.txt2021-12-04 02:35 103
[TXT]sha1sums-dewiki-20211201-pages-meta-history6.xml-p9460136p9600978.7z.txt2021-12-04 11:34 102
[TXT]sha1sums-dewiki-20211201-pages-meta-history6.xml-p9460136p9600978.bz2.txt2021-12-04 02:36 103
[TXT]sha1sums-dewiki-20211201-pages-meta-history6.xml-p9600979p9657685.7z.txt2021-12-04 11:35 102
[TXT]sha1sums-dewiki-20211201-pages-meta-history6.xml-p9600979p9657685.bz2.txt2021-12-04 02:38 103
[TXT]sha1sums-dewiki-20211201-pages-meta-history6.xml-p9657686p9740494.7z.txt2021-12-04 11:35 102
[TXT]sha1sums-dewiki-20211201-pages-meta-history6.xml-p9657686p9740494.bz2.txt2021-12-04 02:39 103
[TXT]sha1sums-dewiki-20211201-pages-meta-history6.xml-p9740495p9759826.7z.txt2021-12-04 11:35 102
[TXT]sha1sums-dewiki-20211201-pages-meta-history6.xml-p9740495p9759826.bz2.txt2021-12-04 02:41 103
[TXT]sha1sums-dewiki-20211201-pages-meta-history6.xml-p9759827p9925680.7z.txt2021-12-04 11:35 102
[TXT]sha1sums-dewiki-20211201-pages-meta-history6.xml-p9759827p9925680.bz2.txt2021-12-04 02:42 103
[TXT]sha1sums-dewiki-20211201-pages-meta-history6.xml-p9925681p9962732.7z.txt2021-12-04 11:35 102
[TXT]sha1sums-dewiki-20211201-pages-meta-history6.xml-p9925681p9962732.bz2.txt2021-12-04 02:44 103
[TXT]sha1sums-dewiki-20211201-pages-meta-history6.xml-p9962733p10059299.7z.txt2021-12-04 11:36 103
[TXT]sha1sums-dewiki-20211201-pages-meta-history6.xml-p9962733p10059299.bz2.txt2021-12-04 02:45 104
[TXT]sha1sums-dewiki-20211201-pages-meta-history6.xml-p10059300p10211965.7z.txt2021-12-04 11:36 104
[TXT]sha1sums-dewiki-20211201-pages-meta-history6.xml-p10059300p10211965.bz2.txt2021-12-04 02:46 105
[TXT]sha1sums-dewiki-20211201-pages-meta-history6.xml-p10211966p10261657.7z.txt2021-12-04 11:36 104
[TXT]sha1sums-dewiki-20211201-pages-meta-history6.xml-p10211966p10261657.bz2.txt2021-12-04 02:48 105
[TXT]sha1sums-dewiki-20211201-pages-meta-history6.xml-p10261658p10425034.7z.txt2021-12-04 11:36 104
[TXT]sha1sums-dewiki-20211201-pages-meta-history6.xml-p10261658p10425034.bz2.txt2021-12-04 02:49 105
[TXT]sha1sums-dewiki-20211201-pages-meta-history6.xml-p10425035p10628186.7z.txt2021-12-04 11:36 104
[TXT]sha1sums-dewiki-20211201-pages-meta-history6.xml-p10425035p10628186.bz2.txt2021-12-04 02:51 105
[TXT]sha1sums-dewiki-20211201-pages-meta-history6.xml-p10628187p10770779.7z.txt2021-12-04 11:37 104
[TXT]sha1sums-dewiki-20211201-pages-meta-history6.xml-p10628187p10770779.bz2.txt2021-12-04 02:52 105
[TXT]sha1sums-dewiki-20211201-pages-meta-history6.xml-p10770780p10971313.7z.txt2021-12-04 11:37 104
[TXT]sha1sums-dewiki-20211201-pages-meta-history6.xml-p10770780p10971313.bz2.txt2021-12-04 02:53 105
[TXT]sha1sums-dewiki-20211201-pages-meta-history6.xml-p10971314p11155167.7z.txt2021-12-04 11:37 104
[TXT]sha1sums-dewiki-20211201-pages-meta-history6.xml-p10971314p11155167.bz2.txt2021-12-04 02:54 105
[TXT]sha1sums-dewiki-20211201-pages-meta-history6.xml-p11155168p11233854.7z.txt2021-12-04 11:37 104
[TXT]sha1sums-dewiki-20211201-pages-meta-history6.xml-p11155168p11233854.bz2.txt2021-12-04 02:56 105
[TXT]sha1sums-dewiki-20211201-pages-meta-history6.xml-p11233855p11360825.7z.txt2021-12-04 11:37 104
[TXT]sha1sums-dewiki-20211201-pages-meta-history6.xml-p11233855p11360825.bz2.txt2021-12-04 02:58 105
[TXT]sha1sums-dewiki-20211201-pages-meta-history6.xml-p11360826p11541020.7z.txt2021-12-04 11:38 104
[TXT]sha1sums-dewiki-20211201-pages-meta-history6.xml-p11360826p11541020.bz2.txt2021-12-04 02:59 105
[TXT]sha1sums-dewiki-20211201-pages-meta-history6.xml-p11541021p11746643.7z.txt2021-12-04 11:38 104
[TXT]sha1sums-dewiki-20211201-pages-meta-history6.xml-p11541021p11746643.bz2.txt2021-12-04 03:01 105
[TXT]sha1sums-dewiki-20211201-pages-meta-history6.xml-p11746644p11911283.7z.txt2021-12-04 11:38 104
[TXT]sha1sums-dewiki-20211201-pages-meta-history6.xml-p11746644p11911283.bz2.txt2021-12-04 03:03 105
[TXT]sha1sums-dewiki-20211201-pages-meta-history6.xml-p11911284p12018588.7z.txt2021-12-04 11:38 104
[TXT]sha1sums-dewiki-20211201-pages-meta-history6.xml-p11911284p12018588.bz2.txt2021-12-04 03:03 105
[TXT]sha1sums-dewiki-20211201-protected_titles.sql.gz.txt2021-12-01 17:41 82
[TXT]sha1sums-dewiki-20211201-redirect.sql.gz.txt2021-12-01 17:41 74
[TXT]sha1sums-dewiki-20211201-site_stats.sql.gz.txt2021-12-01 17:22 76
[TXT]sha1sums-dewiki-20211201-siteinfo-namespaces.json.gz.txt2021-12-02 19:39 86
[TXT]sha1sums-dewiki-20211201-sites.sql.gz.txt2021-12-01 18:19 71
[TXT]sha1sums-dewiki-20211201-stub-articles.xml.gz.txt2021-12-01 17:19 79
[TXT]sha1sums-dewiki-20211201-stub-articles1.xml.gz.txt2021-12-01 17:01 80
[TXT]sha1sums-dewiki-20211201-stub-articles2.xml.gz.txt2021-12-01 17:01 80
[TXT]sha1sums-dewiki-20211201-stub-articles3.xml.gz.txt2021-12-01 17:01 80
[TXT]sha1sums-dewiki-20211201-stub-articles4.xml.gz.txt2021-12-01 17:02 80
[TXT]sha1sums-dewiki-20211201-stub-articles5.xml.gz.txt2021-12-01 17:02 80
[TXT]sha1sums-dewiki-20211201-stub-articles6.xml.gz.txt2021-12-01 17:02 80
[TXT]sha1sums-dewiki-20211201-stub-meta-current.xml.gz.txt2021-12-01 17:19 83
[TXT]sha1sums-dewiki-20211201-stub-meta-current1.xml.gz.txt2021-12-01 17:01 84
[TXT]sha1sums-dewiki-20211201-stub-meta-current2.xml.gz.txt2021-12-01 17:01 84
[TXT]sha1sums-dewiki-20211201-stub-meta-current3.xml.gz.txt2021-12-01 17:01 84
[TXT]sha1sums-dewiki-20211201-stub-meta-current4.xml.gz.txt2021-12-01 17:01 84
[TXT]sha1sums-dewiki-20211201-stub-meta-current5.xml.gz.txt2021-12-01 17:01 84
[TXT]sha1sums-dewiki-20211201-stub-meta-current6.xml.gz.txt2021-12-01 17:01 84
[TXT]sha1sums-dewiki-20211201-stub-meta-history.xml.gz.txt2021-12-01 17:18 83
[TXT]sha1sums-dewiki-20211201-stub-meta-history1.xml.gz.txt2021-12-01 16:54 84
[TXT]sha1sums-dewiki-20211201-stub-meta-history2.xml.gz.txt2021-12-01 16:56 84
[TXT]sha1sums-dewiki-20211201-stub-meta-history3.xml.gz.txt2021-12-01 16:57 84
[TXT]sha1sums-dewiki-20211201-stub-meta-history4.xml.gz.txt2021-12-01 16:58 84
[TXT]sha1sums-dewiki-20211201-stub-meta-history5.xml.gz.txt2021-12-01 16:59 84
[TXT]sha1sums-dewiki-20211201-stub-meta-history6.xml.gz.txt2021-12-01 17:01 84
[TXT]sha1sums-dewiki-20211201-templatelinks.sql.gz.txt2021-12-01 17:33 79
[TXT]sha1sums-dewiki-20211201-user_former_groups.sql.gz.txt2021-12-01 17:38 84
[TXT]sha1sums-dewiki-20211201-user_groups.sql.gz.txt2021-12-01 17:38 77
[TXT]sha1sums-dewiki-20211201-wbc_entity_usage.sql.gz.txt2021-12-01 18:20 82
[HTM]status.html2021-12-04 11:39 107
[   ]tableinfo.json2021-12-01 09:05 1.7K

Apache/2.4.51 (Unix) Server at ftp.acc.umu.se Port 443